<?xml version="1.0" encoding="UTF-8" standalone="yes"?>
<gpx version="1.1" creator="outdooractive - http://www.outdooractive.com" xmlns="http://www.topografix.com/GPX/1/1" xmlns:oa="http://www.outdooractive.com/GPX/Extensions/1" xmlns:xsi="http://www.w3.org/2001/XMLSchema-instance" xsi:schemaLocation="http://www.topografix.com/GPX/1/1 http://www.topografix.com/GPX/1/1/gpx.xsd http://www.outdooractive.com/GPX/Extensions/1 https://www.outdooractive.com/schema/gpx_extensions.xsd">
  <metadata>
    <name>Percorso 8/2 collegamento Fraschietto Alpi Colli</name>
    <author>
      <name>Flavio Querio - Community</name>
    </author>
    <link href="https://www.outdooractive.com/r/334406955"/>
    <time>2026-02-10T09:56:41.144Z</time>
    <extensions>
      <oa:oaCategory>hikingTourTrail</oa:oaCategory>
    </extensions>
  </metadata>
  <trk>
    <name>Percorso 8/2 collegamento Fraschietto Alpi Colli</name>
    <desc><![CDATA[Il percorso 8/2 può essere usato come variante accorciando il percorso 8 per raggiungere il bivacco di Punta Rama. / Si parte dalla borgata Fraschietto (Cà dal Cunt) 1100 mt parcheggio auto nella piazzola lungo la strada, si sale direttamente all Alpe Mombecú 1499 mt (percorso n.5) e poi sul nuovo collegamento (5/3) sino all Alpe Colli 1714 mt dove riprendiamo il sentiero 8 proveniente dal Berchiotto per Punta Quinzeina, cresta della Bella Dormiente e la Cresta Beltrando sino al bivacco di Punta Rama / Distanza: 2,3 Km / Dislivello: +604 mt - 0 mt / Quota part: 1100 mt park Fraschietto / Quota min: 1100 mt str. Fraschietto / Quota max: 1714 mt Alpe Colli / Tempo perc: 1h 44 min / Grado diff : EE /]]></desc>
    <type>hikingTourTrail</type>
    <trkseg>
      <trkpt lat="45.465855" lon="7.599931">
        <ele>1108.08125</ele>
        <time>2021-10-13T06:52:11.000Z</time>
        <name>Percorso 8 (variante) Fraschietto collegamento Alpi Colli (1)</name>
      </trkpt>
      <trkpt lat="45.465851" lon="7.599883">
        <ele>1108.39213</ele>
        <time>2021-10-13T06:52:16.000Z</time>
      </trkpt>
      <trkpt lat="45.465842" lon="7.599827">
        <ele>1109.03664</ele>
        <time>2021-10-13T06:52:21.000Z</time>
      </trkpt>
      <trkpt lat="45.465839" lon="7.599779">
        <ele>1109.40708</ele>
        <time>2021-10-13T06:52:47.000Z</time>
      </trkpt>
      <trkpt lat="45.465816" lon="7.599755">
        <ele>1110.70922</ele>
        <time>2021-10-13T06:52:53.000Z</time>
      </trkpt>
      <trkpt lat="45.465806" lon="7.599717">
        <ele>1111.44744</ele>
        <time>2021-10-13T06:52:59.000Z</time>
      </trkpt>
      <trkpt lat="45.465797" lon="7.599662">
        <ele>1112.25524</ele>
        <time>2021-10-13T06:53:05.000Z</time>
      </trkpt>
      <trkpt lat="45.465795" lon="7.599635">
        <ele>1112.51848</ele>
        <time>2021-10-13T06:53:11.000Z</time>
      </trkpt>
      <trkpt lat="45.465787" lon="7.599609">
        <ele>1113.10203</ele>
        <time>2021-10-13T06:53:16.000Z</time>
      </trkpt>
      <trkpt lat="45.465784" lon="7.59953">
        <ele>1113.90883</ele>
        <time>2021-10-13T06:53:22.000Z</time>
      </trkpt>
      <trkpt lat="45.465768" lon="7.599481">
        <ele>1115.27727</ele>
        <time>2021-10-13T06:53:28.000Z</time>
      </trkpt>
      <trkpt lat="45.465744" lon="7.599491">
        <ele>1116.62063</ele>
        <time>2021-10-13T06:53:34.000Z</time>
      </trkpt>
      <trkpt lat="45.46573" lon="7.599483">
        <ele>1117.54134</ele>
        <time>2021-10-13T06:53:39.000Z</time>
      </trkpt>
      <trkpt lat="45.465719" lon="7.599455">
        <ele>1118.44293</ele>
        <time>2021-10-13T06:53:45.000Z</time>
      </trkpt>
      <trkpt lat="45.465705" lon="7.599402">
        <ele>1119.55464</ele>
        <time>2021-10-13T06:53:51.000Z</time>
      </trkpt>
      <trkpt lat="45.465678" lon="7.599338">
        <ele>1121.01682</ele>
        <time>2021-10-13T06:53:57.000Z</time>
      </trkpt>
      <trkpt lat="45.46565" lon="7.599326">
        <ele>1122.62436</ele>
        <time>2021-10-13T06:54:02.000Z</time>
      </trkpt>
      <trkpt lat="45.465635" lon="7.59932">
        <ele>1123.48744</ele>
        <time>2021-10-13T06:54:08.000Z</time>
      </trkpt>
      <trkpt lat="45.465619" lon="7.599313">
        <ele>1124.40164</ele>
        <time>2021-10-13T06:54:13.000Z</time>
      </trkpt>
      <trkpt lat="45.465599" lon="7.599275">
        <ele>1125.28102</ele>
        <time>2021-10-13T06:54:19.000Z</time>
      </trkpt>
      <trkpt lat="45.465593" lon="7.599238">
        <ele>1125.2657</ele>
        <time>2021-10-13T06:54:24.000Z</time>
      </trkpt>
      <trkpt lat="45.465568" lon="7.59919">
        <ele>1126.22752</ele>
        <time>2021-10-13T06:54:29.000Z</time>
      </trkpt>
      <trkpt lat="45.465543" lon="7.599144">
        <ele>1127.03745</ele>
        <time>2021-10-13T06:54:35.000Z</time>
      </trkpt>
      <trkpt lat="45.465531" lon="7.599146">
        <ele>1127.73991</ele>
        <time>2021-10-13T06:54:40.000Z</time>
      </trkpt>
      <trkpt lat="45.465507" lon="7.599139">
        <ele>1128.89909</ele>
        <time>2021-10-13T06:54:46.000Z</time>
      </trkpt>
      <trkpt lat="45.465494" lon="7.599161">
        <ele>1129.9112</ele>
        <time>2021-10-13T06:54:52.000Z</time>
      </trkpt>
      <trkpt lat="45.465493" lon="7.599173">
        <ele>1130.13831</ele>
        <time>2021-10-13T06:55:04.000Z</time>
      </trkpt>
      <trkpt lat="45.465475" lon="7.599195">
        <ele>1131.335</ele>
        <time>2021-10-13T06:55:10.000Z</time>
      </trkpt>
      <trkpt lat="45.465465" lon="7.599192">
        <ele>1131.78532</ele>
        <time>2021-10-13T06:55:15.000Z</time>
      </trkpt>
      <trkpt lat="45.465434" lon="7.599157">
        <ele>1132.77006</ele>
        <time>2021-10-13T06:55:21.000Z</time>
      </trkpt>
      <trkpt lat="45.465404" lon="7.599138">
        <ele>1133.92524</ele>
        <time>2021-10-13T06:55:27.000Z</time>
      </trkpt>
      <trkpt lat="45.465382" lon="7.599133">
        <ele>1134.95948</ele>
        <time>2021-10-13T06:55:33.000Z</time>
      </trkpt>
      <trkpt lat="45.465363" lon="7.599123">
        <ele>1135.80604</ele>
        <time>2021-10-13T06:55:39.000Z</time>
      </trkpt>
      <trkpt lat="45.465343" lon="7.599089">
        <ele>1136.37804</ele>
        <time>2021-10-13T06:55:45.000Z</time>
      </trkpt>
      <trkpt lat="45.46532" lon="7.599069">
        <ele>1137.42977</ele>
        <time>2021-10-13T06:55:50.000Z</time>
      </trkpt>
      <trkpt lat="45.465318" lon="7.599053">
        <ele>1137.31558</ele>
        <time>2021-10-13T06:55:55.000Z</time>
      </trkpt>
      <trkpt lat="45.465297" lon="7.599059">
        <ele>1138.70008</ele>
        <time>2021-10-13T06:56:13.000Z</time>
      </trkpt>
      <trkpt lat="45.465287" lon="7.599088">
        <ele>1139.70939</ele>
        <time>2021-10-13T06:56:19.000Z</time>
      </trkpt>
      <trkpt lat="45.465283" lon="7.599112">
        <ele>1140.28279</ele>
        <time>2021-10-13T06:56:24.000Z</time>
      </trkpt>
      <trkpt lat="45.465271" lon="7.599113">
        <ele>1141.02796</ele>
        <time>2021-10-13T06:56:30.000Z</time>
      </trkpt>
      <trkpt lat="45.465254" lon="7.599113">
        <ele>1142.07364</ele>
        <time>2021-10-13T06:56:36.000Z</time>
      </trkpt>
      <trkpt lat="45.465224" lon="7.599102">
        <ele>1143.81282</ele>
        <time>2021-10-13T06:56:42.000Z</time>
      </trkpt>
      <trkpt lat="45.465209" lon="7.599094">
        <ele>1144.67379</ele>
        <time>2021-10-13T06:56:48.000Z</time>
      </trkpt>
      <trkpt lat="45.465208" lon="7.599095">
        <ele>1144.74759</ele>
        <time>2021-10-13T06:56:53.000Z</time>
      </trkpt>
      <trkpt lat="45.465171" lon="7.599076">
        <ele>1146.91942</ele>
        <time>2021-10-13T06:56:59.000Z</time>
      </trkpt>
      <trkpt lat="45.465148" lon="7.599068">
        <ele>1148.32768</ele>
        <time>2021-10-13T06:57:05.000Z</time>
      </trkpt>
      <trkpt lat="45.465131" lon="7.599023">
        <ele>1149.06407</ele>
        <time>2021-10-13T06:57:11.000Z</time>
      </trkpt>
      <trkpt lat="45.465113" lon="7.598992">
        <ele>1149.96282</ele>
        <time>2021-10-13T06:57:16.000Z</time>
      </trkpt>
      <trkpt lat="45.465096" lon="7.599003">
        <ele>1151.14599</ele>
        <time>2021-10-13T06:57:22.000Z</time>
      </trkpt>
      <trkpt lat="45.465091" lon="7.599042">
        <ele>1151.80128</ele>
        <time>2021-10-13T06:57:44.000Z</time>
      </trkpt>
      <trkpt lat="45.465073" lon="7.599056">
        <ele>1153.09312</ele>
        <time>2021-10-13T06:57:49.000Z</time>
      </trkpt>
      <trkpt lat="45.465063" lon="7.599046">
        <ele>1153.65592</ele>
        <time>2021-10-13T06:57:55.000Z</time>
      </trkpt>
      <trkpt lat="45.46504" lon="7.599023">
        <ele>1154.94542</ele>
        <time>2021-10-13T06:58:13.000Z</time>
      </trkpt>
      <trkpt lat="45.465038" lon="7.599039">
        <ele>1155.22482</ele>
        <time>2021-10-13T06:58:19.000Z</time>
      </trkpt>
      <trkpt lat="45.465013" lon="7.599077">
        <ele>1157.21832</ele>
        <time>2021-10-13T06:58:25.000Z</time>
      </trkpt>
      <trkpt lat="45.465005" lon="7.599069">
        <ele>1157.67134</ele>
        <time>2021-10-13T06:58:30.000Z</time>
      </trkpt>
      <trkpt lat="45.464994" lon="7.599054">
        <ele>1158.26176</ele>
        <time>2021-10-13T06:58:35.000Z</time>
      </trkpt>
      <trkpt lat="45.464995" lon="7.599053">
        <ele>1158.18672</ele>
        <time>2021-10-13T06:58:41.000Z</time>
      </trkpt>
      <trkpt lat="45.464987" lon="7.599061">
        <ele>1158.7855</ele>
        <time>2021-10-13T06:58:53.000Z</time>
      </trkpt>
      <trkpt lat="45.464982" lon="7.599082">
        <ele>1159.29567</ele>
        <time>2021-10-13T06:58:58.000Z</time>
      </trkpt>
      <trkpt lat="45.464961" lon="7.599127">
        <ele>1161.03334</ele>
        <time>2021-10-13T06:59:04.000Z</time>
      </trkpt>
      <trkpt lat="45.46494" lon="7.599146">
        <ele>1162.53485</ele>
        <time>2021-10-13T06:59:09.000Z</time>
      </trkpt>
      <trkpt lat="45.464928" lon="7.599153">
        <ele>1163.35992</ele>
        <time>2021-10-13T06:59:14.000Z</time>
      </trkpt>
      <trkpt lat="45.464895" lon="7.599145">
        <ele>1165.41207</ele>
        <time>2021-10-13T06:59:20.000Z</time>
      </trkpt>
      <trkpt lat="45.464888" lon="7.599179">
        <ele>1166.14984</ele>
        <time>2021-10-13T06:59:31.000Z</time>
      </trkpt>
      <trkpt lat="45.46487" lon="7.599189">
        <ele>1167.40437</ele>
        <time>2021-10-13T06:59:37.000Z</time>
      </trkpt>
      <trkpt lat="45.464846" lon="7.599196">
        <ele>1169.02639</ele>
        <time>2021-10-13T06:59:42.000Z</time>
      </trkpt>
      <trkpt lat="45.464828" lon="7.599191">
        <ele>1170.15018</ele>
        <time>2021-10-13T06:59:48.000Z</time>
      </trkpt>
      <trkpt lat="45.46482" lon="7.599197">
        <ele>1170.72513</ele>
        <time>2021-10-13T07:00:20.000Z</time>
      </trkpt>
      <trkpt lat="45.464789" lon="7.599205">
        <ele>1172.80563</ele>
        <time>2021-10-13T07:00:26.000Z</time>
      </trkpt>
      <trkpt lat="45.46478" lon="7.599213">
        <ele>1173.44733</ele>
        <time>2021-10-13T07:00:31.000Z</time>
      </trkpt>
      <trkpt lat="45.464778" lon="7.599247">
        <ele>1173.84265</ele>
        <time>2021-10-13T07:00:36.000Z</time>
      </trkpt>
      <trkpt lat="45.464775" lon="7.599258">
        <ele>1174.11838</ele>
        <time>2021-10-13T07:00:42.000Z</time>
      </trkpt>
      <trkpt lat="45.464746" lon="7.599295">
        <ele>1176.11487</ele>
        <time>2021-10-13T07:00:54.000Z</time>
      </trkpt>
      <trkpt lat="45.464712" lon="7.59929">
        <ele>1178.03899</ele>
        <time>2021-10-13T07:00:59.000Z</time>
      </trkpt>
      <trkpt lat="45.464697" lon="7.599271">
        <ele>1178.86478</ele>
        <time>2021-10-13T07:01:05.000Z</time>
      </trkpt>
      <trkpt lat="45.46468" lon="7.599255">
        <ele>1179.88324</ele>
        <time>2021-10-13T07:01:10.000Z</time>
      </trkpt>
      <trkpt lat="45.464671" lon="7.599253">
        <ele>1180.44332</ele>
        <time>2021-10-13T07:01:16.000Z</time>
      </trkpt>
      <trkpt lat="45.464628" lon="7.59925">
        <ele>1183.18935</ele>
        <time>2021-10-13T07:01:40.000Z</time>
      </trkpt>
      <trkpt lat="45.464605" lon="7.599233">
        <ele>1184.77184</ele>
        <time>2021-10-13T07:01:45.000Z</time>
      </trkpt>
      <trkpt lat="45.464602" lon="7.59924">
        <ele>1184.9399</ele>
        <time>2021-10-13T07:01:57.000Z</time>
      </trkpt>
      <trkpt lat="45.464589" lon="7.599265">
        <ele>1185.6938</ele>
        <time>2021-10-13T07:02:08.000Z</time>
      </trkpt>
      <trkpt lat="45.464561" lon="7.599257">
        <ele>1187.59591</ele>
        <time>2021-10-13T07:02:14.000Z</time>
      </trkpt>
      <trkpt lat="45.46453" lon="7.599251">
        <ele>1189.71085</ele>
        <time>2021-10-13T07:02:20.000Z</time>
      </trkpt>
      <trkpt lat="45.464513" lon="7.599248">
        <ele>1190.87019</ele>
        <time>2021-10-13T07:02:26.000Z</time>
      </trkpt>
      <trkpt lat="45.464499" lon="7.599234">
        <ele>1191.90298</ele>
        <time>2021-10-13T07:02:32.000Z</time>
      </trkpt>
      <trkpt lat="45.464483" lon="7.59925">
        <ele>1192.85417</ele>
        <time>2021-10-13T07:02:44.000Z</time>
      </trkpt>
      <trkpt lat="45.464454" lon="7.599313">
        <ele>1194.44442</ele>
        <time>2021-10-13T07:03:13.000Z</time>
      </trkpt>
      <trkpt lat="45.464458" lon="7.59934">
        <ele>1194.13972</ele>
        <time>2021-10-13T07:03:19.000Z</time>
      </trkpt>
      <trkpt lat="45.464474" lon="7.599356">
        <ele>1193.10032</ele>
        <time>2021-10-13T07:03:24.000Z</time>
      </trkpt>
      <trkpt lat="45.464482" lon="7.59938">
        <ele>1192.63175</ele>
        <time>2021-10-13T07:03:52.000Z</time>
      </trkpt>
      <trkpt lat="45.464489" lon="7.599425">
        <ele>1192.45732</ele>
        <time>2021-10-13T07:04:03.000Z</time>
      </trkpt>
      <trkpt lat="45.464508" lon="7.599501">
        <ele>1192.20353</ele>
        <time>2021-10-13T07:04:08.000Z</time>
      </trkpt>
      <trkpt lat="45.464509" lon="7.599554">
        <ele>1193.07624</ele>
        <time>2021-10-13T07:04:14.000Z</time>
      </trkpt>
      <trkpt lat="45.464499" lon="7.599582">
        <ele>1194.26907</ele>
        <time>2021-10-13T07:04:19.000Z</time>
      </trkpt>
      <trkpt lat="45.4645" lon="7.599623">
        <ele>1195.01276</ele>
        <time>2021-10-13T07:04:30.000Z</time>
      </trkpt>
      <trkpt lat="45.464503" lon="7.599719">
        <ele>1196.72216</ele>
        <time>2021-10-13T07:04:42.000Z</time>
      </trkpt>
      <trkpt lat="45.464505" lon="7.599792">
        <ele>1198.1925</ele>
        <time>2021-10-13T07:04:47.000Z</time>
      </trkpt>
      <trkpt lat="45.464532" lon="7.599844">
        <ele>1197.92205</ele>
        <time>2021-10-13T07:04:53.000Z</time>
      </trkpt>
      <trkpt lat="45.464552" lon="7.599895">
        <ele>1198.14124</ele>
        <time>2021-10-13T07:05:04.000Z</time>
      </trkpt>
      <trkpt lat="45.464555" lon="7.599946">
        <ele>1199.23297</ele>
        <time>2021-10-13T07:05:10.000Z</time>
      </trkpt>
      <trkpt lat="45.464561" lon="7.599999">
        <ele>1200.23739</ele>
        <time>2021-10-13T07:05:15.000Z</time>
      </trkpt>
      <trkpt lat="45.464551" lon="7.600052">
        <ele>1202.09269</ele>
        <time>2021-10-13T07:05:21.000Z</time>
      </trkpt>
      <trkpt lat="45.464537" lon="7.600074">
        <ele>1203.41641</ele>
        <time>2021-10-13T07:05:26.000Z</time>
      </trkpt>
      <trkpt lat="45.4645" lon="7.60007">
        <ele>1205.36929</ele>
        <time>2021-10-13T07:05:38.000Z</time>
      </trkpt>
      <trkpt lat="45.46445" lon="7.600076">
        <ele>1208.37116</ele>
        <time>2021-10-13T07:05:56.000Z</time>
      </trkpt>
      <trkpt lat="45.464457" lon="7.600148">
        <ele>1209.79514</ele>
        <time>2021-10-13T07:06:26.000Z</time>
      </trkpt>
      <trkpt lat="45.464457" lon="7.600208">
        <ele>1211.1661</ele>
        <time>2021-10-13T07:06:44.000Z</time>
      </trkpt>
      <trkpt lat="45.46444" lon="7.600295">
        <ele>1214.02315</ele>
        <time>2021-10-13T07:06:50.000Z</time>
      </trkpt>
      <trkpt lat="45.464433" lon="7.600324">
        <ele>1214.9484</ele>
        <time>2021-10-13T07:06:56.000Z</time>
      </trkpt>
      <trkpt lat="45.464433" lon="7.600325">
        <ele>1214.96699</ele>
        <time>2021-10-13T07:07:02.000Z</time>
      </trkpt>
      <trkpt lat="45.464403" lon="7.600452">
        <ele>1217.84368</ele>
        <time>2021-10-13T07:07:36.000Z</time>
      </trkpt>
      <trkpt lat="45.464381" lon="7.600458">
        <ele>1218.86711</ele>
        <time>2021-10-13T07:08:20.000Z</time>
      </trkpt>
      <trkpt lat="45.464339" lon="7.600455">
        <ele>1220.80558</ele>
        <time>2021-10-13T07:08:32.000Z</time>
      </trkpt>
      <trkpt lat="45.464299" lon="7.600433">
        <ele>1222.72221</ele>
        <time>2021-10-13T07:08:38.000Z</time>
      </trkpt>
      <trkpt lat="45.464262" lon="7.600391">
        <ele>1224.43736</ele>
        <time>2021-10-13T07:08:55.000Z</time>
      </trkpt>
      <trkpt lat="45.464236" lon="7.600389">
        <ele>1225.94038</ele>
        <time>2021-10-13T07:09:00.000Z</time>
      </trkpt>
      <trkpt lat="45.464209" lon="7.600374">
        <ele>1227.39989</ele>
        <time>2021-10-13T07:09:06.000Z</time>
      </trkpt>
      <trkpt lat="45.464181" lon="7.600354">
        <ele>1228.87433</ele>
        <time>2021-10-13T07:09:12.000Z</time>
      </trkpt>
      <trkpt lat="45.464158" lon="7.60035">
        <ele>1230.25674</ele>
        <time>2021-10-13T07:09:17.000Z</time>
      </trkpt>
      <trkpt lat="45.46413" lon="7.600337">
        <ele>1231.83377</ele>
        <time>2021-10-13T07:09:29.000Z</time>
      </trkpt>
      <trkpt lat="45.464108" lon="7.600315">
        <ele>1232.88858</ele>
        <time>2021-10-13T07:09:40.000Z</time>
      </trkpt>
      <trkpt lat="45.464088" lon="7.600348">
        <ele>1234.63653</ele>
        <time>2021-10-13T07:09:58.000Z</time>
      </trkpt>
      <trkpt lat="45.464085" lon="7.600363">
        <ele>1235.02881</ele>
        <time>2021-10-13T07:10:10.000Z</time>
      </trkpt>
      <trkpt lat="45.464069" lon="7.600392">
        <ele>1236.40712</ele>
        <time>2021-10-13T07:10:15.000Z</time>
      </trkpt>
      <trkpt lat="45.464058" lon="7.60042">
        <ele>1237.3886</ele>
        <time>2021-10-13T07:10:26.000Z</time>
      </trkpt>
      <trkpt lat="45.464029" lon="7.600425">
        <ele>1239.3382</ele>
        <time>2021-10-13T07:10:32.000Z</time>
      </trkpt>
      <trkpt lat="45.464011" lon="7.600399">
        <ele>1240.29686</ele>
        <time>2021-10-13T07:10:38.000Z</time>
      </trkpt>
      <trkpt lat="45.463985" lon="7.600401">
        <ele>1242.02671</ele>
        <time>2021-10-13T07:10:44.000Z</time>
      </trkpt>
      <trkpt lat="45.463954" lon="7.600394">
        <ele>1243.96258</ele>
        <time>2021-10-13T07:10:50.000Z</time>
      </trkpt>
      <trkpt lat="45.463956" lon="7.60044">
        <ele>1244.20037</ele>
        <time>2021-10-13T07:11:07.000Z</time>
      </trkpt>
      <trkpt lat="45.463946" lon="7.600481">
        <ele>1244.89983</ele>
        <time>2021-10-13T07:11:13.000Z</time>
      </trkpt>
      <trkpt lat="45.46394" lon="7.600496">
        <ele>1245.2423</ele>
        <time>2021-10-13T07:11:19.000Z</time>
      </trkpt>
      <trkpt lat="45.463932" lon="7.600509">
        <ele>1245.68789</ele>
        <time>2021-10-13T07:11:24.000Z</time>
      </trkpt>
      <trkpt lat="45.463932" lon="7.60051">
        <ele>1245.68348</ele>
        <time>2021-10-13T07:11:30.000Z</time>
      </trkpt>
      <trkpt lat="45.46391" lon="7.600518">
        <ele>1246.97579</ele>
        <time>2021-10-13T07:11:36.000Z</time>
      </trkpt>
      <trkpt lat="45.463891" lon="7.600512">
        <ele>1248.13402</ele>
        <time>2021-10-13T07:11:46.000Z</time>
      </trkpt>
      <trkpt lat="45.463865" lon="7.600521">
        <ele>1249.61216</ele>
        <time>2021-10-13T07:11:52.000Z</time>
      </trkpt>
      <trkpt lat="45.463863" lon="7.600522">
        <ele>1249.72356</ele>
        <time>2021-10-13T07:11:57.000Z</time>
      </trkpt>
      <trkpt lat="45.463835" lon="7.600466">
        <ele>1251.51455</ele>
        <time>2021-10-13T07:12:09.000Z</time>
      </trkpt>
      <trkpt lat="45.463803" lon="7.60043">
        <ele>1253.32871</ele>
        <time>2021-10-13T07:12:21.000Z</time>
      </trkpt>
      <trkpt lat="45.46372" lon="7.600378">
        <ele>1258.43228</ele>
        <time>2021-10-13T07:13:02.000Z</time>
      </trkpt>
      <trkpt lat="45.463695" lon="7.600392">
        <ele>1260.15105</ele>
        <time>2021-10-13T07:13:08.000Z</time>
      </trkpt>
      <trkpt lat="45.463655" lon="7.600403">
        <ele>1262.88052</ele>
        <time>2021-10-13T07:13:20.000Z</time>
      </trkpt>
      <trkpt lat="45.463639" lon="7.600385">
        <ele>1264.06159</ele>
        <time>2021-10-13T07:13:31.000Z</time>
      </trkpt>
      <trkpt lat="45.463625" lon="7.600367">
        <ele>1265.15273</ele>
        <time>2021-10-13T07:13:37.000Z</time>
      </trkpt>
      <trkpt lat="45.463617" lon="7.600376">
        <ele>1265.69572</ele>
        <time>2021-10-13T07:13:48.000Z</time>
      </trkpt>
      <trkpt lat="45.463578" lon="7.600397">
        <ele>1268.4549</ele>
        <time>2021-10-13T07:14:06.000Z</time>
      </trkpt>
      <trkpt lat="45.463562" lon="7.600414">
        <ele>1269.56087</ele>
        <time>2021-10-13T07:14:12.000Z</time>
      </trkpt>
      <trkpt lat="45.463544" lon="7.600407">
        <ele>1271.02135</ele>
        <time>2021-10-13T07:14:18.000Z</time>
      </trkpt>
      <trkpt lat="45.463528" lon="7.600394">
        <ele>1272.40244</ele>
        <time>2021-10-13T07:14:23.000Z</time>
      </trkpt>
      <trkpt lat="45.463518" lon="7.60037">
        <ele>1273.39009</ele>
        <time>2021-10-13T07:14:29.000Z</time>
      </trkpt>
      <trkpt lat="45.463517" lon="7.600368">
        <ele>1273.48617</ele>
        <time>2021-10-13T07:14:35.000Z</time>
      </trkpt>
      <trkpt lat="45.463497" lon="7.600318">
        <ele>1275.43187</ele>
        <time>2021-10-13T07:15:03.000Z</time>
      </trkpt>
      <trkpt lat="45.463472" lon="7.600239">
        <ele>1277.49887</ele>
        <time>2021-10-13T07:15:09.000Z</time>
      </trkpt>
      <trkpt lat="45.463472" lon="7.600237">
        <ele>1277.49145</ele>
        <time>2021-10-13T07:15:14.000Z</time>
      </trkpt>
      <trkpt lat="45.463458" lon="7.600226">
        <ele>1278.49933</ele>
        <time>2021-10-13T07:15:26.000Z</time>
      </trkpt>
      <trkpt lat="45.463446" lon="7.600217">
        <ele>1279.33802</ele>
        <time>2021-10-13T07:15:32.000Z</time>
      </trkpt>
      <trkpt lat="45.463432" lon="7.600203">
        <ele>1280.25229</ele>
        <time>2021-10-13T07:15:38.000Z</time>
      </trkpt>
      <trkpt lat="45.463401" lon="7.600218">
        <ele>1282.68524</ele>
        <time>2021-10-13T07:15:56.000Z</time>
      </trkpt>
      <trkpt lat="45.463386" lon="7.60023">
        <ele>1283.87973</ele>
        <time>2021-10-13T07:16:02.000Z</time>
      </trkpt>
      <trkpt lat="45.463374" lon="7.600251">
        <ele>1284.86722</ele>
        <time>2021-10-13T07:16:08.000Z</time>
      </trkpt>
      <trkpt lat="45.463356" lon="7.600264">
        <ele>1286.198</ele>
        <time>2021-10-13T07:16:14.000Z</time>
      </trkpt>
      <trkpt lat="45.463355" lon="7.600265">
        <ele>1286.27122</ele>
        <time>2021-10-13T07:16:20.000Z</time>
      </trkpt>
      <trkpt lat="45.463327" lon="7.600298">
        <ele>1288.24111</ele>
        <time>2021-10-13T07:16:32.000Z</time>
      </trkpt>
      <trkpt lat="45.463311" lon="7.600315">
        <ele>1289.30358</ele>
        <time>2021-10-13T07:16:38.000Z</time>
      </trkpt>
      <trkpt lat="45.46326" lon="7.600326">
        <ele>1292.71484</ele>
        <time>2021-10-13T07:16:50.000Z</time>
      </trkpt>
      <trkpt lat="45.463255" lon="7.600296">
        <ele>1293.13806</ele>
        <time>2021-10-13T07:16:56.000Z</time>
      </trkpt>
      <trkpt lat="45.463251" lon="7.600276">
        <ele>1293.4537</ele>
        <time>2021-10-13T07:17:02.000Z</time>
      </trkpt>
      <trkpt lat="45.463245" lon="7.600252">
        <ele>1293.90021</ele>
        <time>2021-10-13T07:17:08.000Z</time>
      </trkpt>
      <trkpt lat="45.463245" lon="7.60025">
        <ele>1293.90191</ele>
        <time>2021-10-13T07:17:14.000Z</time>
      </trkpt>
      <trkpt lat="45.463238" lon="7.600199">
        <ele>1294.37628</ele>
        <time>2021-10-13T07:17:20.000Z</time>
      </trkpt>
      <trkpt lat="45.463235" lon="7.600181">
        <ele>1294.56182</ele>
        <time>2021-10-13T07:17:26.000Z</time>
      </trkpt>
      <trkpt lat="45.463233" lon="7.60018">
        <ele>1294.70393</ele>
        <time>2021-10-13T07:17:32.000Z</time>
      </trkpt>
      <trkpt lat="45.463212" lon="7.600154">
        <ele>1296.18364</ele>
        <time>2021-10-13T07:17:38.000Z</time>
      </trkpt>
      <trkpt lat="45.463209" lon="7.600131">
        <ele>1296.38687</ele>
        <time>2021-10-13T07:17:44.000Z</time>
      </trkpt>
      <trkpt lat="45.463182" lon="7.60009">
        <ele>1298.28488</ele>
        <time>2021-10-13T07:18:08.000Z</time>
      </trkpt>
      <trkpt lat="45.46308" lon="7.600136">
        <ele>1304.95164</ele>
        <time>2021-10-13T07:18:32.000Z</time>
      </trkpt>
      <trkpt lat="45.46304" lon="7.600141">
        <ele>1307.45359</ele>
        <time>2021-10-13T07:18:44.000Z</time>
      </trkpt>
      <trkpt lat="45.462977" lon="7.600113">
        <ele>1311.07067</ele>
        <time>2021-10-13T07:19:44.000Z</time>
      </trkpt>
      <trkpt lat="45.462958" lon="7.600093">
        <ele>1312.03364</ele>
        <time>2021-10-13T07:19:56.000Z</time>
      </trkpt>
      <trkpt lat="45.462917" lon="7.600032">
        <ele>1313.81345</ele>
        <time>2021-10-13T07:20:02.000Z</time>
      </trkpt>
      <trkpt lat="45.4629" lon="7.600013">
        <ele>1314.51574</ele>
        <time>2021-10-13T07:20:08.000Z</time>
      </trkpt>
      <trkpt lat="45.462881" lon="7.599995">
        <ele>1315.29015</ele>
        <time>2021-10-13T07:20:14.000Z</time>
      </trkpt>
      <trkpt lat="45.462858" lon="7.600011">
        <ele>1316.77824</ele>
        <time>2021-10-13T07:20:53.000Z</time>
      </trkpt>
      <trkpt lat="45.462828" lon="7.600009">
        <ele>1318.41766</ele>
        <time>2021-10-13T07:20:59.000Z</time>
      </trkpt>
      <trkpt lat="45.462811" lon="7.60001">
        <ele>1319.38714</ele>
        <time>2021-10-13T07:21:05.000Z</time>
      </trkpt>
      <trkpt lat="45.462798" lon="7.600025">
        <ele>1320.34333</ele>
        <time>2021-10-13T07:21:17.000Z</time>
      </trkpt>
      <trkpt lat="45.46278" lon="7.600025">
        <ele>1321.36722</ele>
        <time>2021-10-13T07:21:29.000Z</time>
      </trkpt>
      <trkpt lat="45.462751" lon="7.600007">
        <ele>1322.71775</ele>
        <time>2021-10-13T07:21:35.000Z</time>
      </trkpt>
      <trkpt lat="45.462743" lon="7.600016">
        <ele>1323.31973</ele>
        <time>2021-10-13T07:21:40.000Z</time>
      </trkpt>
      <trkpt lat="45.462722" lon="7.599992">
        <ele>1324.05358</ele>
        <time>2021-10-13T07:21:52.000Z</time>
      </trkpt>
      <trkpt lat="45.462692" lon="7.599972">
        <ele>1325.26307</ele>
        <time>2021-10-13T07:21:58.000Z</time>
      </trkpt>
      <trkpt lat="45.462677" lon="7.599957">
        <ele>1325.70824</ele>
        <time>2021-10-13T07:22:03.000Z</time>
      </trkpt>
      <trkpt lat="45.462651" lon="7.599974">
        <ele>1327.4461</ele>
        <time>2021-10-13T07:22:14.000Z</time>
      </trkpt>
      <trkpt lat="45.462638" lon="7.599998">
        <ele>1328.6562</ele>
        <time>2021-10-13T07:22:20.000Z</time>
      </trkpt>
      <trkpt lat="45.462631" lon="7.600006">
        <ele>1329.19359</ele>
        <time>2021-10-13T07:22:26.000Z</time>
      </trkpt>
      <trkpt lat="45.462613" lon="7.600021">
        <ele>1330.45371</ele>
        <time>2021-10-13T07:22:32.000Z</time>
      </trkpt>
      <trkpt lat="45.462607" lon="7.600066">
        <ele>1331.67708</ele>
        <time>2021-10-13T07:22:50.000Z</time>
      </trkpt>
      <trkpt lat="45.462545" lon="7.600067">
        <ele>1334.99817</ele>
        <time>2021-10-13T07:23:20.000Z</time>
      </trkpt>
      <trkpt lat="45.462521" lon="7.600084">
        <ele>1336.6288</ele>
        <time>2021-10-13T07:23:32.000Z</time>
      </trkpt>
      <trkpt lat="45.462502" lon="7.600127">
        <ele>1338.5597</ele>
        <time>2021-10-13T07:23:44.000Z</time>
      </trkpt>
      <trkpt lat="45.462498" lon="7.600135">
        <ele>1338.94445</ele>
        <time>2021-10-13T07:24:20.000Z</time>
      </trkpt>
      <trkpt lat="45.462492" lon="7.600153">
        <ele>1339.64679</ele>
        <time>2021-10-13T07:24:44.000Z</time>
      </trkpt>
      <trkpt lat="45.462468" lon="7.600167">
        <ele>1341.28833</ele>
        <time>2021-10-13T07:24:50.000Z</time>
      </trkpt>
      <trkpt lat="45.462453" lon="7.600175">
        <ele>1342.31678</ele>
        <time>2021-10-13T07:24:56.000Z</time>
      </trkpt>
      <trkpt lat="45.462412" lon="7.600178">
        <ele>1344.73451</ele>
        <time>2021-10-13T07:25:08.000Z</time>
      </trkpt>
      <trkpt lat="45.462402" lon="7.600198">
        <ele>1345.78564</ele>
        <time>2021-10-13T07:25:14.000Z</time>
      </trkpt>
      <trkpt lat="45.462387" lon="7.600218">
        <ele>1347.13316</ele>
        <time>2021-10-13T07:25:26.000Z</time>
      </trkpt>
      <trkpt lat="45.462354" lon="7.600237">
        <ele>1349.49399</ele>
        <time>2021-10-13T07:25:43.000Z</time>
      </trkpt>
      <trkpt lat="45.462335" lon="7.600244">
        <ele>1350.73872</ele>
        <time>2021-10-13T07:25:59.000Z</time>
      </trkpt>
      <trkpt lat="45.462299" lon="7.600253">
        <ele>1352.9332</ele>
        <time>2021-10-13T07:26:05.000Z</time>
      </trkpt>
      <trkpt lat="45.46229" lon="7.600234">
        <ele>1352.9338</ele>
        <time>2021-10-13T07:26:11.000Z</time>
      </trkpt>
      <trkpt lat="45.462278" lon="7.600242">
        <ele>1353.77959</ele>
        <time>2021-10-13T07:26:23.000Z</time>
      </trkpt>
      <trkpt lat="45.462241" lon="7.600228">
        <ele>1355.30579</ele>
        <time>2021-10-13T07:26:41.000Z</time>
      </trkpt>
      <trkpt lat="45.462217" lon="7.600212">
        <ele>1356.00084</ele>
        <time>2021-10-13T07:26:47.000Z</time>
      </trkpt>
      <trkpt lat="45.462189" lon="7.600201">
        <ele>1356.94937</ele>
        <time>2021-10-13T07:26:52.000Z</time>
      </trkpt>
      <trkpt lat="45.462158" lon="7.600216">
        <ele>1358.86436</ele>
        <time>2021-10-13T07:26:58.000Z</time>
      </trkpt>
      <trkpt lat="45.462141" lon="7.600236">
        <ele>1360.28655</ele>
        <time>2021-10-13T07:27:04.000Z</time>
      </trkpt>
      <trkpt lat="45.462136" lon="7.600254">
        <ele>1361.08211</ele>
        <time>2021-10-13T07:27:10.000Z</time>
      </trkpt>
      <trkpt lat="45.462133" lon="7.600262">
        <ele>1361.46096</ele>
        <time>2021-10-13T07:27:16.000Z</time>
      </trkpt>
      <trkpt lat="45.462099" lon="7.600341">
        <ele>1365.26514</ele>
        <time>2021-10-13T07:27:40.000Z</time>
      </trkpt>
      <trkpt lat="45.462095" lon="7.600364">
        <ele>1366.06964</ele>
        <time>2021-10-13T07:27:46.000Z</time>
      </trkpt>
      <trkpt lat="45.462088" lon="7.600382">
        <ele>1366.90023</ele>
        <time>2021-10-13T07:27:56.000Z</time>
      </trkpt>
      <trkpt lat="45.462073" lon="7.600407">
        <ele>1368.3655</ele>
        <time>2021-10-13T07:28:02.000Z</time>
      </trkpt>
      <trkpt lat="45.462063" lon="7.600418">
        <ele>1369.21723</ele>
        <time>2021-10-13T07:28:08.000Z</time>
      </trkpt>
      <trkpt lat="45.462063" lon="7.60042">
        <ele>1369.27061</ele>
        <time>2021-10-13T07:28:54.000Z</time>
      </trkpt>
      <trkpt lat="45.462046" lon="7.600538">
        <ele>1373.16335</ele>
        <time>2021-10-13T07:29:11.000Z</time>
      </trkpt>
      <trkpt lat="45.462027" lon="7.600563">
        <ele>1374.81233</ele>
        <time>2021-10-13T07:29:22.000Z</time>
      </trkpt>
      <trkpt lat="45.462004" lon="7.60056">
        <ele>1376.17632</ele>
        <time>2021-10-13T07:29:34.000Z</time>
      </trkpt>
      <trkpt lat="45.46197" lon="7.600547">
        <ele>1377.99966</ele>
        <time>2021-10-13T07:29:40.000Z</time>
      </trkpt>
      <trkpt lat="45.461968" lon="7.600547">
        <ele>1378.11906</ele>
        <time>2021-10-13T07:29:45.000Z</time>
      </trkpt>
      <trkpt lat="45.461952" lon="7.600552">
        <ele>1379.16089</ele>
        <time>2021-10-13T07:29:51.000Z</time>
      </trkpt>
      <trkpt lat="45.461933" lon="7.600564">
        <ele>1380.53927</ele>
        <time>2021-10-13T07:29:56.000Z</time>
      </trkpt>
      <trkpt lat="45.461919" lon="7.60058">
        <ele>1381.67848</ele>
        <time>2021-10-13T07:30:26.000Z</time>
      </trkpt>
      <trkpt lat="45.461911" lon="7.600561">
        <ele>1381.89339</ele>
        <time>2021-10-13T07:30:32.000Z</time>
      </trkpt>
      <trkpt lat="45.46191" lon="7.60056">
        <ele>1381.94106</ele>
        <time>2021-10-13T07:30:38.000Z</time>
      </trkpt>
      <trkpt lat="45.461865" lon="7.600588">
        <ele>1385.21355</ele>
        <time>2021-10-13T07:30:56.000Z</time>
      </trkpt>
      <trkpt lat="45.461852" lon="7.600579">
        <ele>1385.88482</ele>
        <time>2021-10-13T07:31:02.000Z</time>
      </trkpt>
      <trkpt lat="45.461813" lon="7.600562">
        <ele>1387.76584</ele>
        <time>2021-10-13T07:31:08.000Z</time>
      </trkpt>
      <trkpt lat="45.461785" lon="7.600556">
        <ele>1388.86214</ele>
        <time>2021-10-13T07:31:20.000Z</time>
      </trkpt>
      <trkpt lat="45.461769" lon="7.600554">
        <ele>1389.34602</ele>
        <time>2021-10-13T07:31:25.000Z</time>
      </trkpt>
      <trkpt lat="45.461742" lon="7.600555">
        <ele>1390.00376</ele>
        <time>2021-10-13T07:31:30.000Z</time>
      </trkpt>
      <trkpt lat="45.461695" lon="7.600572">
        <ele>1390.92715</ele>
        <time>2021-10-13T07:31:36.000Z</time>
      </trkpt>
      <trkpt lat="45.461676" lon="7.600608">
        <ele>1391.75599</ele>
        <time>2021-10-13T07:31:42.000Z</time>
      </trkpt>
      <trkpt lat="45.46167" lon="7.600649">
        <ele>1392.51853</ele>
        <time>2021-10-13T07:31:48.000Z</time>
      </trkpt>
      <trkpt lat="45.461657" lon="7.60067">
        <ele>1393.03179</ele>
        <time>2021-10-13T07:31:54.000Z</time>
      </trkpt>
      <trkpt lat="45.461644" lon="7.600709">
        <ele>1393.94638</ele>
        <time>2021-10-13T07:32:06.000Z</time>
      </trkpt>
      <trkpt lat="45.461664" lon="7.60075">
        <ele>1394.4712</ele>
        <time>2021-10-13T07:32:22.000Z</time>
      </trkpt>
      <trkpt lat="45.461678" lon="7.600801">
        <ele>1395.28834</ele>
        <time>2021-10-13T07:32:28.000Z</time>
      </trkpt>
      <trkpt lat="45.461682" lon="7.600849">
        <ele>1396.2336</ele>
        <time>2021-10-13T07:32:34.000Z</time>
      </trkpt>
      <trkpt lat="45.461676" lon="7.600891">
        <ele>1397.29858</ele>
        <time>2021-10-13T07:32:39.000Z</time>
      </trkpt>
      <trkpt lat="45.461674" lon="7.600927">
        <ele>1398.12142</ele>
        <time>2021-10-13T07:32:44.000Z</time>
      </trkpt>
      <trkpt lat="45.461677" lon="7.600972">
        <ele>1398.98609</ele>
        <time>2021-10-13T07:32:56.000Z</time>
      </trkpt>
      <trkpt lat="45.46168" lon="7.601022">
        <ele>1399.91642</ele>
        <time>2021-10-13T07:33:02.000Z</time>
      </trkpt>
      <trkpt lat="45.461676" lon="7.601056">
        <ele>1400.69416</ele>
        <time>2021-10-13T07:33:08.000Z</time>
      </trkpt>
      <trkpt lat="45.461673" lon="7.601104">
        <ele>1401.69716</ele>
        <time>2021-10-13T07:33:14.000Z</time>
      </trkpt>
      <trkpt lat="45.461658" lon="7.601142">
        <ele>1402.84121</ele>
        <time>2021-10-13T07:33:20.000Z</time>
      </trkpt>
      <trkpt lat="45.461643" lon="7.601161">
        <ele>1403.61196</ele>
        <time>2021-10-13T07:33:26.000Z</time>
      </trkpt>
      <trkpt lat="45.461627" lon="7.601196">
        <ele>1404.69803</ele>
        <time>2021-10-13T07:33:32.000Z</time>
      </trkpt>
      <trkpt lat="45.461617" lon="7.601226">
        <ele>1405.52334</ele>
        <time>2021-10-13T07:33:38.000Z</time>
      </trkpt>
      <trkpt lat="45.461609" lon="7.601246">
        <ele>1406.101</ele>
        <time>2021-10-13T07:33:44.000Z</time>
      </trkpt>
      <trkpt lat="45.461608" lon="7.601258">
        <ele>1406.35554</ele>
        <time>2021-10-13T07:33:50.000Z</time>
      </trkpt>
      <trkpt lat="45.461604" lon="7.601294">
        <ele>1407.14134</ele>
        <time>2021-10-13T07:33:56.000Z</time>
      </trkpt>
      <trkpt lat="45.461586" lon="7.601368">
        <ele>1408.97124</ele>
        <time>2021-10-13T07:34:02.000Z</time>
      </trkpt>
      <trkpt lat="45.461583" lon="7.601404">
        <ele>1409.7169</ele>
        <time>2021-10-13T07:34:08.000Z</time>
      </trkpt>
      <trkpt lat="45.461572" lon="7.601435">
        <ele>1410.55534</ele>
        <time>2021-10-13T07:34:14.000Z</time>
      </trkpt>
      <trkpt lat="45.461562" lon="7.601454">
        <ele>1411.14838</ele>
        <time>2021-10-13T07:34:20.000Z</time>
      </trkpt>
      <trkpt lat="45.461544" lon="7.601482">
        <ele>1412.10562</ele>
        <time>2021-10-13T07:34:26.000Z</time>
      </trkpt>
      <trkpt lat="45.461534" lon="7.601501">
        <ele>1412.70465</ele>
        <time>2021-10-13T07:34:32.000Z</time>
      </trkpt>
      <trkpt lat="45.461516" lon="7.60155">
        <ele>1414.0702</ele>
        <time>2021-10-13T07:34:38.000Z</time>
      </trkpt>
      <trkpt lat="45.461508" lon="7.601567">
        <ele>1414.59478</ele>
        <time>2021-10-13T07:34:50.000Z</time>
      </trkpt>
      <trkpt lat="45.461485" lon="7.601629">
        <ele>1416.35759</ele>
        <time>2021-10-13T07:35:08.000Z</time>
      </trkpt>
      <trkpt lat="45.461466" lon="7.601665">
        <ele>1417.50485</ele>
        <time>2021-10-13T07:35:14.000Z</time>
      </trkpt>
      <trkpt lat="45.461442" lon="7.601694">
        <ele>1418.62149</ele>
        <time>2021-10-13T07:35:20.000Z</time>
      </trkpt>
      <trkpt lat="45.461417" lon="7.60172">
        <ele>1419.68693</ele>
        <time>2021-10-13T07:35:26.000Z</time>
      </trkpt>
      <trkpt lat="45.461376" lon="7.601753">
        <ele>1421.25218</ele>
        <time>2021-10-13T07:35:32.000Z</time>
      </trkpt>
      <trkpt lat="45.461338" lon="7.601772">
        <ele>1422.4785</ele>
        <time>2021-10-13T07:35:38.000Z</time>
      </trkpt>
      <trkpt lat="45.461312" lon="7.601788">
        <ele>1423.36022</ele>
        <time>2021-10-13T07:35:44.000Z</time>
      </trkpt>
      <trkpt lat="45.461295" lon="7.601818">
        <ele>1424.31738</ele>
        <time>2021-10-13T07:35:50.000Z</time>
      </trkpt>
      <trkpt lat="45.461285" lon="7.601848">
        <ele>1425.11604</ele>
        <time>2021-10-13T07:35:56.000Z</time>
      </trkpt>
      <trkpt lat="45.461281" lon="7.601867">
        <ele>1425.56357</ele>
        <time>2021-10-13T07:36:02.000Z</time>
      </trkpt>
      <trkpt lat="45.461288" lon="7.60189">
        <ele>1425.81304</ele>
        <time>2021-10-13T07:36:20.000Z</time>
      </trkpt>
      <trkpt lat="45.461273" lon="7.601919">
        <ele>1426.68283</ele>
        <time>2021-10-13T07:36:26.000Z</time>
      </trkpt>
      <trkpt lat="45.461262" lon="7.601933">
        <ele>1427.19064</ele>
        <time>2021-10-13T07:36:32.000Z</time>
      </trkpt>
      <trkpt lat="45.461243" lon="7.601962">
        <ele>1428.13931</ele>
        <time>2021-10-13T07:36:38.000Z</time>
      </trkpt>
      <trkpt lat="45.46121" lon="7.601994">
        <ele>1429.45962</ele>
        <time>2021-10-13T07:36:44.000Z</time>
      </trkpt>
      <trkpt lat="45.461188" lon="7.60203">
        <ele>1430.59413</ele>
        <time>2021-10-13T07:36:50.000Z</time>
      </trkpt>
      <trkpt lat="45.461159" lon="7.602053">
        <ele>1431.67149</ele>
        <time>2021-10-13T07:36:56.000Z</time>
      </trkpt>
      <trkpt lat="45.461148" lon="7.602083">
        <ele>1432.44725</ele>
        <time>2021-10-13T07:37:02.000Z</time>
      </trkpt>
      <trkpt lat="45.461144" lon="7.602108">
        <ele>1432.95752</ele>
        <time>2021-10-13T07:37:08.000Z</time>
      </trkpt>
      <trkpt lat="45.461126" lon="7.60213">
        <ele>1433.77976</ele>
        <time>2021-10-13T07:37:14.000Z</time>
      </trkpt>
      <trkpt lat="45.46111" lon="7.602151">
        <ele>1434.54535</ele>
        <time>2021-10-13T07:37:20.000Z</time>
      </trkpt>
      <trkpt lat="45.461095" lon="7.602177">
        <ele>1435.37821</ele>
        <time>2021-10-13T07:37:26.000Z</time>
      </trkpt>
      <trkpt lat="45.461074" lon="7.602198">
        <ele>1436.28865</ele>
        <time>2021-10-13T07:37:32.000Z</time>
      </trkpt>
      <trkpt lat="45.461056" lon="7.602227">
        <ele>1437.26688</ele>
        <time>2021-10-13T07:37:38.000Z</time>
      </trkpt>
      <trkpt lat="45.461034" lon="7.602249">
        <ele>1438.23839</ele>
        <time>2021-10-13T07:37:44.000Z</time>
      </trkpt>
      <trkpt lat="45.461017" lon="7.602274">
        <ele>1439.14395</ele>
        <time>2021-10-13T07:37:50.000Z</time>
      </trkpt>
      <trkpt lat="45.460997" lon="7.602289">
        <ele>1439.94697</ele>
        <time>2021-10-13T07:37:56.000Z</time>
      </trkpt>
      <trkpt lat="45.46098" lon="7.602317">
        <ele>1440.92332</ele>
        <time>2021-10-13T07:38:08.000Z</time>
      </trkpt>
      <trkpt lat="45.460968" lon="7.602334">
        <ele>1441.56252</ele>
        <time>2021-10-13T07:38:20.000Z</time>
      </trkpt>
      <trkpt lat="45.460952" lon="7.602372">
        <ele>1442.71911</ele>
        <time>2021-10-13T07:38:26.000Z</time>
      </trkpt>
      <trkpt lat="45.460939" lon="7.602409">
        <ele>1443.78229</ele>
        <time>2021-10-13T07:38:32.000Z</time>
      </trkpt>
      <trkpt lat="45.460927" lon="7.602439">
        <ele>1444.68405</ele>
        <time>2021-10-13T07:38:38.000Z</time>
      </trkpt>
      <trkpt lat="45.460917" lon="7.602456">
        <ele>1445.27951</ele>
        <time>2021-10-13T07:38:44.000Z</time>
      </trkpt>
      <trkpt lat="45.460896" lon="7.602471">
        <ele>1446.1052</ele>
        <time>2021-10-13T07:38:50.000Z</time>
      </trkpt>
      <trkpt lat="45.460882" lon="7.602496">
        <ele>1446.93651</ele>
        <time>2021-10-13T07:39:06.000Z</time>
      </trkpt>
      <trkpt lat="45.460843" lon="7.602523">
        <ele>1448.35099</ele>
        <time>2021-10-13T07:39:12.000Z</time>
      </trkpt>
      <trkpt lat="45.460813" lon="7.602565">
        <ele>1449.84086</ele>
        <time>2021-10-13T07:39:24.000Z</time>
      </trkpt>
      <trkpt lat="45.460815" lon="7.602578">
        <ele>1450.07659</ele>
        <time>2021-10-13T07:39:30.000Z</time>
      </trkpt>
      <trkpt lat="45.460807" lon="7.602643">
        <ele>1451.58605</ele>
        <time>2021-10-13T07:39:51.000Z</time>
      </trkpt>
      <trkpt lat="45.460821" lon="7.602712">
        <ele>1452.52474</ele>
        <time>2021-10-13T07:40:08.000Z</time>
      </trkpt>
      <trkpt lat="45.460822" lon="7.60277">
        <ele>1453.48449</ele>
        <time>2021-10-13T07:40:14.000Z</time>
      </trkpt>
      <trkpt lat="45.460823" lon="7.602829">
        <ele>1454.37952</ele>
        <time>2021-10-13T07:40:20.000Z</time>
      </trkpt>
      <trkpt lat="45.460816" lon="7.602889">
        <ele>1455.49298</ele>
        <time>2021-10-13T07:40:26.000Z</time>
      </trkpt>
      <trkpt lat="45.460797" lon="7.602927">
        <ele>1456.72142</ele>
        <time>2021-10-13T07:40:32.000Z</time>
      </trkpt>
      <trkpt lat="45.460796" lon="7.602971">
        <ele>1457.33318</ele>
        <time>2021-10-13T07:40:38.000Z</time>
      </trkpt>
      <trkpt lat="45.460785" lon="7.603013">
        <ele>1458.2882</ele>
        <time>2021-10-13T07:40:44.000Z</time>
      </trkpt>
      <trkpt lat="45.460764" lon="7.603037">
        <ele>1459.39146</ele>
        <time>2021-10-13T07:40:50.000Z</time>
      </trkpt>
      <trkpt lat="45.460756" lon="7.603076">
        <ele>1460.1898</ele>
        <time>2021-10-13T07:40:56.000Z</time>
      </trkpt>
      <trkpt lat="45.460758" lon="7.603075">
        <ele>1460.10202</ele>
        <time>2021-10-13T07:41:02.000Z</time>
      </trkpt>
      <trkpt lat="45.460743" lon="7.603091">
        <ele>1460.86122</ele>
        <time>2021-10-13T07:41:44.000Z</time>
      </trkpt>
      <trkpt lat="45.460734" lon="7.603106">
        <ele>1461.37786</ele>
        <time>2021-10-13T07:41:50.000Z</time>
      </trkpt>
      <trkpt lat="45.460732" lon="7.603165">
        <ele>1462.17165</ele>
        <time>2021-10-13T07:41:56.000Z</time>
      </trkpt>
      <trkpt lat="45.460726" lon="7.603196">
        <ele>1462.74787</ele>
        <time>2021-10-13T07:42:02.000Z</time>
      </trkpt>
      <trkpt lat="45.46071" lon="7.603206">
        <ele>1463.4518</ele>
        <time>2021-10-13T07:42:08.000Z</time>
      </trkpt>
      <trkpt lat="45.460681" lon="7.60323">
        <ele>1464.77275</ele>
        <time>2021-10-13T07:42:14.000Z</time>
      </trkpt>
      <trkpt lat="45.460651" lon="7.603257">
        <ele>1466.13709</ele>
        <time>2021-10-13T07:42:20.000Z</time>
      </trkpt>
      <trkpt lat="45.460637" lon="7.60329">
        <ele>1467.01098</ele>
        <time>2021-10-13T07:42:26.000Z</time>
      </trkpt>
      <trkpt lat="45.460618" lon="7.603322">
        <ele>1468.03825</ele>
        <time>2021-10-13T07:42:38.000Z</time>
      </trkpt>
      <trkpt lat="45.460594" lon="7.603349">
        <ele>1469.16345</ele>
        <time>2021-10-13T07:42:44.000Z</time>
      </trkpt>
      <trkpt lat="45.460572" lon="7.603348">
        <ele>1469.84999</ele>
        <time>2021-10-13T07:42:49.000Z</time>
      </trkpt>
      <trkpt lat="45.460561" lon="7.603357">
        <ele>1470.30175</ele>
        <time>2021-10-13T07:42:55.000Z</time>
      </trkpt>
      <trkpt lat="45.46055" lon="7.603384">
        <ele>1470.98356</ele>
        <time>2021-10-13T07:43:06.000Z</time>
      </trkpt>
      <trkpt lat="45.460535" lon="7.603425">
        <ele>1471.9692</ele>
        <time>2021-10-13T07:43:12.000Z</time>
      </trkpt>
      <trkpt lat="45.460521" lon="7.603439">
        <ele>1472.6049</ele>
        <time>2021-10-13T07:43:17.000Z</time>
      </trkpt>
      <trkpt lat="45.460505" lon="7.603466">
        <ele>1473.50124</ele>
        <time>2021-10-13T07:43:28.000Z</time>
      </trkpt>
      <trkpt lat="45.460452" lon="7.603459">
        <ele>1475.11476</ele>
        <time>2021-10-13T07:43:34.000Z</time>
      </trkpt>
      <trkpt lat="45.460408" lon="7.603449">
        <ele>1476.08331</ele>
        <time>2021-10-13T07:43:40.000Z</time>
      </trkpt>
      <trkpt lat="45.460371" lon="7.603461">
        <ele>1477.08355</ele>
        <time>2021-10-13T07:43:46.000Z</time>
      </trkpt>
      <trkpt lat="45.460337" lon="7.603462">
        <ele>1477.55953</ele>
        <time>2021-10-13T07:43:52.000Z</time>
      </trkpt>
      <trkpt lat="45.460318" lon="7.603478">
        <ele>1478.16026</ele>
        <time>2021-10-13T07:43:58.000Z</time>
      </trkpt>
      <trkpt lat="45.460304" lon="7.603512">
        <ele>1479.17582</ele>
        <time>2021-10-13T07:44:08.000Z</time>
      </trkpt>
      <trkpt lat="45.460292" lon="7.603545">
        <ele>1480.12518</ele>
        <time>2021-10-13T07:44:14.000Z</time>
      </trkpt>
      <trkpt lat="45.460273" lon="7.603584">
        <ele>1481.24921</ele>
        <time>2021-10-13T07:44:20.000Z</time>
      </trkpt>
      <trkpt lat="45.460259" lon="7.603617">
        <ele>1482.13961</ele>
        <time>2021-10-13T07:44:26.000Z</time>
      </trkpt>
      <trkpt lat="45.460257" lon="7.603662">
        <ele>1483.12719</ele>
        <time>2021-10-13T07:44:32.000Z</time>
      </trkpt>
      <trkpt lat="45.460259" lon="7.6037">
        <ele>1483.83933</ele>
        <time>2021-10-13T07:44:38.000Z</time>
      </trkpt>
      <trkpt lat="45.460247" lon="7.603736">
        <ele>1484.69618</ele>
        <time>2021-10-13T07:44:44.000Z</time>
      </trkpt>
      <trkpt lat="45.460233" lon="7.603779">
        <ele>1485.71389</ele>
        <time>2021-10-13T07:44:50.000Z</time>
      </trkpt>
      <trkpt lat="45.460212" lon="7.603808">
        <ele>1486.60273</ele>
        <time>2021-10-13T07:44:56.000Z</time>
      </trkpt>
      <trkpt lat="45.460194" lon="7.603836">
        <ele>1487.40158</ele>
        <time>2021-10-13T07:45:02.000Z</time>
      </trkpt>
      <trkpt lat="45.460187" lon="7.603873">
        <ele>1488.16825</ele>
        <time>2021-10-13T07:45:08.000Z</time>
      </trkpt>
      <trkpt lat="45.460166" lon="7.603895">
        <ele>1488.85615</ele>
        <time>2021-10-13T07:45:13.000Z</time>
      </trkpt>
      <trkpt lat="45.46013" lon="7.603909">
        <ele>1489.54728</ele>
        <time>2021-10-13T07:45:19.000Z</time>
      </trkpt>
      <trkpt lat="45.460097" lon="7.60392">
        <ele>1490.04425</ele>
        <time>2021-10-13T07:45:24.000Z</time>
      </trkpt>
      <trkpt lat="45.460074" lon="7.603953">
        <ele>1490.8805</ele>
        <time>2021-10-13T07:45:30.000Z</time>
      </trkpt>
      <trkpt lat="45.460041" lon="7.603982">
        <ele>1491.69024</ele>
        <time>2021-10-13T07:45:36.000Z</time>
      </trkpt>
      <trkpt lat="45.46003" lon="7.603999">
        <ele>1492.12683</ele>
        <time>2021-10-13T07:45:48.000Z</time>
      </trkpt>
      <trkpt lat="45.460022" lon="7.604046">
        <ele>1493.26532</ele>
        <time>2021-10-13T07:45:58.000Z</time>
      </trkpt>
      <trkpt lat="45.460027" lon="7.604047">
        <ele>1493.25745</ele>
        <time>2021-10-13T07:46:04.000Z</time>
      </trkpt>
      <trkpt lat="45.460008" lon="7.604108">
        <ele>1494.83455</ele>
        <time>2021-10-13T07:46:38.000Z</time>
      </trkpt>
      <trkpt lat="45.45998" lon="7.604167">
        <ele>1496.47712</ele>
        <time>2021-10-13T07:47:14.000Z</time>
      </trkpt>
      <trkpt lat="45.459974" lon="7.604252">
        <ele>1498.62254</ele>
        <time>2021-10-13T07:47:26.000Z</time>
      </trkpt>
      <trkpt lat="45.45999" lon="7.604306">
        <ele>1499.69245</ele>
        <time>2021-10-13T07:47:38.000Z</time>
      </trkpt>
      <trkpt lat="45.460044" lon="7.604305">
        <ele>1498.52934</ele>
        <time>2021-10-13T07:47:50.000Z</time>
      </trkpt>
      <trkpt lat="45.460078" lon="7.604308">
        <ele>1497.69618</ele>
        <time>2021-10-13T07:47:56.000Z</time>
      </trkpt>
      <trkpt lat="45.460086" lon="7.604342">
        <ele>1498.11147</ele>
        <time>2021-10-13T07:48:02.000Z</time>
      </trkpt>
      <trkpt lat="45.460084" lon="7.604369">
        <ele>1498.70132</ele>
        <time>2021-10-13T07:48:08.000Z</time>
      </trkpt>
      <trkpt lat="45.460092" lon="7.604428">
        <ele>1499.56884</ele>
        <time>2021-10-13T07:48:14.000Z</time>
      </trkpt>
      <trkpt lat="45.460114" lon="7.604475">
        <ele>1499.60773</ele>
        <time>2021-10-13T07:48:20.000Z</time>
      </trkpt>
      <trkpt lat="45.460121" lon="7.604532">
        <ele>1500.37303</ele>
        <time>2021-10-13T07:48:26.000Z</time>
      </trkpt>
      <trkpt lat="45.460129" lon="7.604572">
        <ele>1500.81149</ele>
        <time>2021-10-13T07:48:32.000Z</time>
      </trkpt>
      <trkpt lat="45.460142" lon="7.604608">
        <ele>1500.96669</ele>
        <time>2021-10-13T07:48:38.000Z</time>
      </trkpt>
      <trkpt lat="45.460129" lon="7.604649">
        <ele>1502.56839</ele>
        <time>2021-10-13T07:48:44.000Z</time>
      </trkpt>
      <trkpt lat="45.460113" lon="7.604627">
        <ele>1502.79451</ele>
        <time>2021-10-13T07:49:02.000Z</time>
      </trkpt>
      <trkpt lat="45.460078" lon="7.604621">
        <ele>1504.2803</ele>
        <time>2021-10-13T07:49:08.000Z</time>
      </trkpt>
      <trkpt lat="45.460063" lon="7.604607">
        <ele>1504.57687</ele>
        <time>2021-10-13T07:49:14.000Z</time>
      </trkpt>
      <trkpt lat="45.460019" lon="7.604605">
        <ele>1506.34841</ele>
        <time>2021-10-13T07:49:20.000Z</time>
      </trkpt>
      <trkpt lat="45.459971" lon="7.604611">
        <ele>1508.4334</ele>
        <time>2021-10-13T07:49:32.000Z</time>
      </trkpt>
      <trkpt lat="45.459934" lon="7.604616">
        <ele>1509.99408</ele>
        <time>2021-10-13T07:49:38.000Z</time>
      </trkpt>
      <trkpt lat="45.459915" lon="7.604626">
        <ele>1511.013</ele>
        <time>2021-10-13T07:49:44.000Z</time>
      </trkpt>
      <trkpt lat="45.459904" lon="7.604603">
        <ele>1510.57161</ele>
        <time>2021-10-13T07:49:50.000Z</time>
      </trkpt>
      <trkpt lat="45.459884" lon="7.604589">
        <ele>1510.68175</ele>
        <time>2021-10-13T07:49:56.000Z</time>
      </trkpt>
      <trkpt lat="45.459869" lon="7.604575">
        <ele>1510.58366</ele>
        <time>2021-10-13T07:50:02.000Z</time>
      </trkpt>
      <trkpt lat="45.459845" lon="7.604573">
        <ele>1511.07205</ele>
        <time>2021-10-13T07:50:18.000Z</time>
      </trkpt>
      <trkpt lat="45.459829" lon="7.604579">
        <ele>1511.61932</ele>
        <time>2021-10-13T07:50:23.000Z</time>
      </trkpt>
      <trkpt lat="45.459812" lon="7.604593">
        <ele>1512.45282</ele>
        <time>2021-10-13T07:50:35.000Z</time>
      </trkpt>
      <trkpt lat="45.459828" lon="7.604634">
        <ele>1513.69944</ele>
        <time>2021-10-13T07:50:57.000Z</time>
      </trkpt>
      <trkpt lat="45.45983" lon="7.604664">
        <ele>1514.79702</ele>
        <time>2021-10-13T07:52:08.000Z</time>
      </trkpt>
      <trkpt lat="45.459838" lon="7.604688">
        <ele>1515.54439</ele>
        <time>2021-10-13T07:52:14.000Z</time>
      </trkpt>
      <trkpt lat="45.459856" lon="7.604705">
        <ele>1515.76985</ele>
        <time>2021-10-13T07:52:20.000Z</time>
      </trkpt>
      <trkpt lat="45.459885" lon="7.604748">
        <ele>1516.60793</ele>
        <time>2021-10-13T07:52:38.000Z</time>
      </trkpt>
      <trkpt lat="45.459901" lon="7.604798">
        <ele>1518.03485</ele>
        <time>2021-10-13T07:53:14.000Z</time>
      </trkpt>
      <trkpt lat="45.459931" lon="7.604837">
        <ele>1518.45732</ele>
        <time>2021-10-13T07:53:20.000Z</time>
      </trkpt>
      <trkpt lat="45.45994" lon="7.60487">
        <ele>1519.31028</ele>
        <time>2021-10-13T07:53:26.000Z</time>
      </trkpt>
      <trkpt lat="45.459953" lon="7.60489">
        <ele>1519.46249</ele>
        <time>2021-10-13T07:53:32.000Z</time>
      </trkpt>
      <trkpt lat="45.459957" lon="7.604923">
        <ele>1520.36692</ele>
        <time>2021-10-13T07:53:43.000Z</time>
      </trkpt>
      <trkpt lat="45.459952" lon="7.604949">
        <ele>1521.41455</ele>
        <time>2021-10-13T07:54:00.000Z</time>
      </trkpt>
      <trkpt lat="45.459959" lon="7.605026">
        <ele>1523.38794</ele>
        <time>2021-10-13T07:54:10.000Z</time>
      </trkpt>
      <trkpt lat="45.459962" lon="7.605054">
        <ele>1524.03395</ele>
        <time>2021-10-13T07:54:16.000Z</time>
      </trkpt>
      <trkpt lat="45.459956" lon="7.605105">
        <ele>1525.83776</ele>
        <time>2021-10-13T07:54:26.000Z</time>
      </trkpt>
      <trkpt lat="45.459928" lon="7.605148">
        <ele>1528.73734</ele>
        <time>2021-10-13T07:54:32.000Z</time>
      </trkpt>
      <trkpt lat="45.459901" lon="7.605132">
        <ele>1529.67918</ele>
        <time>2021-10-13T07:54:38.000Z</time>
      </trkpt>
      <trkpt lat="45.459886" lon="7.605156">
        <ele>1531.21414</ele>
        <time>2021-10-13T07:54:44.000Z</time>
      </trkpt>
      <trkpt lat="45.45985" lon="7.605162">
        <ele>1532.97815</ele>
        <time>2021-10-13T07:54:50.000Z</time>
      </trkpt>
      <trkpt lat="45.459829" lon="7.605157">
        <ele>1533.53565</ele>
        <time>2021-10-13T07:54:56.000Z</time>
      </trkpt>
      <trkpt lat="45.459789" lon="7.605158">
        <ele>1534.69181</ele>
        <time>2021-10-13T07:55:14.000Z</time>
      </trkpt>
      <trkpt lat="45.459771" lon="7.605181">
        <ele>1536.01615</ele>
        <time>2021-10-13T07:55:26.000Z</time>
      </trkpt>
      <trkpt lat="45.45973" lon="7.605194">
        <ele>1537.32916</ele>
        <time>2021-10-13T07:55:50.000Z</time>
      </trkpt>
      <trkpt lat="45.459691" lon="7.605206">
        <ele>1538.38608</ele>
        <time>2021-10-13T07:55:56.000Z</time>
      </trkpt>
      <trkpt lat="45.459675" lon="7.605225">
        <ele>1539.42792</ele>
        <time>2021-10-13T07:56:02.000Z</time>
      </trkpt>
      <trkpt lat="45.459662" lon="7.605241">
        <ele>1540.2819</ele>
        <time>2021-10-13T07:56:20.000Z</time>
      </trkpt>
      <trkpt lat="45.459638" lon="7.60528">
        <ele>1542.19126</ele>
        <time>2021-10-13T07:56:26.000Z</time>
      </trkpt>
      <trkpt lat="45.459642" lon="7.605316">
        <ele>1543.85276</ele>
        <time>2021-10-13T07:56:32.000Z</time>
      </trkpt>
      <trkpt lat="45.459691" lon="7.605326">
        <ele>1543.84996</ele>
        <time>2021-10-13T07:56:38.000Z</time>
      </trkpt>
      <trkpt lat="45.45972" lon="7.605333">
        <ele>1543.58747</ele>
        <time>2021-10-13T07:56:44.000Z</time>
      </trkpt>
      <trkpt lat="45.459738" lon="7.605359">
        <ele>1544.18631</ele>
        <time>2021-10-13T07:56:50.000Z</time>
      </trkpt>
      <trkpt lat="45.459717" lon="7.605382">
        <ele>1545.64906</ele>
        <time>2021-10-13T07:57:02.000Z</time>
      </trkpt>
      <trkpt lat="45.459695" lon="7.605409">
        <ele>1547.19274</ele>
        <time>2021-10-13T07:57:08.000Z</time>
      </trkpt>
      <trkpt lat="45.459676" lon="7.605421">
        <ele>1548.00632</ele>
        <time>2021-10-13T07:57:14.000Z</time>
      </trkpt>
      <trkpt lat="45.459662" lon="7.605432">
        <ele>1548.62105</ele>
        <time>2021-10-13T07:57:20.000Z</time>
      </trkpt>
      <trkpt lat="45.459649" lon="7.605445">
        <ele>1549.23875</ele>
        <time>2021-10-13T07:57:26.000Z</time>
      </trkpt>
      <trkpt lat="45.459626" lon="7.605478">
        <ele>1550.60215</ele>
        <time>2021-10-13T07:57:32.000Z</time>
      </trkpt>
      <trkpt lat="45.459608" lon="7.605502">
        <ele>1551.52607</ele>
        <time>2021-10-13T07:57:38.000Z</time>
      </trkpt>
      <trkpt lat="45.4596" lon="7.605518">
        <ele>1552.1298</ele>
        <time>2021-10-13T07:57:44.000Z</time>
      </trkpt>
      <trkpt lat="45.459582" lon="7.60555">
        <ele>1553.32063</ele>
        <time>2021-10-13T07:57:56.000Z</time>
      </trkpt>
      <trkpt lat="45.459549" lon="7.605567">
        <ele>1553.85459</ele>
        <time>2021-10-13T07:58:02.000Z</time>
      </trkpt>
      <trkpt lat="45.459534" lon="7.605598">
        <ele>1555.04256</ele>
        <time>2021-10-13T07:58:08.000Z</time>
      </trkpt>
      <trkpt lat="45.459521" lon="7.605629">
        <ele>1556.25881</ele>
        <time>2021-10-13T07:58:14.000Z</time>
      </trkpt>
      <trkpt lat="45.459525" lon="7.605666">
        <ele>1557.73136</ele>
        <time>2021-10-13T07:58:20.000Z</time>
      </trkpt>
      <trkpt lat="45.459554" lon="7.605688">
        <ele>1558.4795</ele>
        <time>2021-10-13T07:58:32.000Z</time>
      </trkpt>
      <trkpt lat="45.459577" lon="7.60572">
        <ele>1559.37092</ele>
        <time>2021-10-13T07:58:44.000Z</time>
      </trkpt>
      <trkpt lat="45.459571" lon="7.605751">
        <ele>1560.4149</ele>
        <time>2021-10-13T07:58:50.000Z</time>
      </trkpt>
      <trkpt lat="45.459579" lon="7.60577">
        <ele>1560.86394</ele>
        <time>2021-10-13T07:58:55.000Z</time>
      </trkpt>
      <trkpt lat="45.45958" lon="7.605784">
        <ele>1561.25652</ele>
        <time>2021-10-13T07:59:01.000Z</time>
      </trkpt>
      <trkpt lat="45.459582" lon="7.605819">
        <ele>1562.22279</ele>
        <time>2021-10-13T07:59:07.000Z</time>
      </trkpt>
      <trkpt lat="45.459591" lon="7.605857">
        <ele>1563.04895</ele>
        <time>2021-10-13T07:59:12.000Z</time>
      </trkpt>
      <trkpt lat="45.459593" lon="7.605887">
        <ele>1563.83057</ele>
        <time>2021-10-13T07:59:29.000Z</time>
      </trkpt>
      <trkpt lat="45.459559" lon="7.605901">
        <ele>1565.34533</ele>
        <time>2021-10-13T07:59:34.000Z</time>
      </trkpt>
      <trkpt lat="45.459544" lon="7.605924">
        <ele>1566.56117</ele>
        <time>2021-10-13T07:59:40.000Z</time>
      </trkpt>
      <trkpt lat="45.459522" lon="7.605934">
        <ele>1567.5464</ele>
        <time>2021-10-13T07:59:46.000Z</time>
      </trkpt>
      <trkpt lat="45.459506" lon="7.605974">
        <ele>1569.43453</ele>
        <time>2021-10-13T08:00:04.000Z</time>
      </trkpt>
      <trkpt lat="45.459492" lon="7.606037">
        <ele>1572.13443</ele>
        <time>2021-10-13T08:00:28.000Z</time>
      </trkpt>
      <trkpt lat="45.459469" lon="7.606044">
        <ele>1573.02304</ele>
        <time>2021-10-13T08:00:34.000Z</time>
      </trkpt>
      <trkpt lat="45.459441" lon="7.606032">
        <ele>1573.21562</ele>
        <time>2021-10-13T08:00:40.000Z</time>
      </trkpt>
      <trkpt lat="45.459407" lon="7.606031">
        <ele>1573.81646</ele>
        <time>2021-10-13T08:00:51.000Z</time>
      </trkpt>
      <trkpt lat="45.45936" lon="7.606048">
        <ele>1575.24085</ele>
        <time>2021-10-13T08:01:08.000Z</time>
      </trkpt>
      <trkpt lat="45.459346" lon="7.606069">
        <ele>1576.35152</ele>
        <time>2021-10-13T08:01:14.000Z</time>
      </trkpt>
      <trkpt lat="45.459345" lon="7.606109">
        <ele>1578.12243</ele>
        <time>2021-10-13T08:01:20.000Z</time>
      </trkpt>
      <trkpt lat="45.459338" lon="7.606187">
        <ele>1581.61056</ele>
        <time>2021-10-13T08:01:26.000Z</time>
      </trkpt>
      <trkpt lat="45.45931" lon="7.606198">
        <ele>1582.62763</ele>
        <time>2021-10-13T08:01:32.000Z</time>
      </trkpt>
      <trkpt lat="45.459242" lon="7.606202">
        <ele>1583.80289</ele>
        <time>2021-10-13T08:01:50.000Z</time>
      </trkpt>
      <trkpt lat="45.459175" lon="7.606235">
        <ele>1586.16508</ele>
        <time>2021-10-13T08:02:08.000Z</time>
      </trkpt>
      <trkpt lat="45.459139" lon="7.606255">
        <ele>1587.48671</ele>
        <time>2021-10-13T08:02:32.000Z</time>
      </trkpt>
      <trkpt lat="45.459098" lon="7.606248">
        <ele>1587.06174</ele>
        <time>2021-10-13T08:02:44.000Z</time>
      </trkpt>
      <trkpt lat="45.45906" lon="7.606263">
        <ele>1587.69744</ele>
        <time>2021-10-13T08:02:50.000Z</time>
      </trkpt>
      <trkpt lat="45.45902" lon="7.606273">
        <ele>1587.90314</ele>
        <time>2021-10-13T08:02:56.000Z</time>
      </trkpt>
      <trkpt lat="45.458999" lon="7.606304">
        <ele>1589.40881</ele>
        <time>2021-10-13T08:03:02.000Z</time>
      </trkpt>
      <trkpt lat="45.458968" lon="7.606309">
        <ele>1589.39892</ele>
        <time>2021-10-13T08:03:08.000Z</time>
      </trkpt>
      <trkpt lat="45.458954" lon="7.606337">
        <ele>1590.82338</ele>
        <time>2021-10-13T08:03:14.000Z</time>
      </trkpt>
      <trkpt lat="45.458902" lon="7.606366">
        <ele>1591.90288</ele>
        <time>2021-10-13T08:03:38.000Z</time>
      </trkpt>
      <trkpt lat="45.458887" lon="7.606432">
        <ele>1595.57876</ele>
        <time>2021-10-13T08:03:44.000Z</time>
      </trkpt>
      <trkpt lat="45.458858" lon="7.606446">
        <ele>1596.13026</ele>
        <time>2021-10-13T08:03:56.000Z</time>
      </trkpt>
      <trkpt lat="45.45883" lon="7.606474">
        <ele>1597.64872</ele>
        <time>2021-10-13T08:04:02.000Z</time>
      </trkpt>
      <trkpt lat="45.45881" lon="7.606493">
        <ele>1598.75732</ele>
        <time>2021-10-13T08:04:14.000Z</time>
      </trkpt>
      <trkpt lat="45.458802" lon="7.606529">
        <ele>1601.18496</ele>
        <time>2021-10-13T08:04:20.000Z</time>
      </trkpt>
      <trkpt lat="45.458779" lon="7.606545">
        <ele>1602.16807</ele>
        <time>2021-10-13T08:04:26.000Z</time>
      </trkpt>
      <trkpt lat="45.458746" lon="7.606531">
        <ele>1600.95635</ele>
        <time>2021-10-13T08:04:32.000Z</time>
      </trkpt>
      <trkpt lat="45.458714" lon="7.606539">
        <ele>1601.26379</ele>
        <time>2021-10-13T08:04:38.000Z</time>
      </trkpt>
      <trkpt lat="45.458705" lon="7.60656">
        <ele>1602.60418</ele>
        <time>2021-10-13T08:04:44.000Z</time>
      </trkpt>
      <trkpt lat="45.458687" lon="7.606568">
        <ele>1602.99524</ele>
        <time>2021-10-13T08:04:50.000Z</time>
      </trkpt>
      <trkpt lat="45.458674" lon="7.606584">
        <ele>1603.94838</ele>
        <time>2021-10-13T08:04:56.000Z</time>
      </trkpt>
      <trkpt lat="45.458645" lon="7.60659">
        <ele>1604.17141</ele>
        <time>2021-10-13T08:05:02.000Z</time>
      </trkpt>
      <trkpt lat="45.458614" lon="7.606601">
        <ele>1604.82768</ele>
        <time>2021-10-13T08:05:08.000Z</time>
      </trkpt>
      <trkpt lat="45.458593" lon="7.606617">
        <ele>1605.88883</ele>
        <time>2021-10-13T08:05:13.000Z</time>
      </trkpt>
      <trkpt lat="45.458574" lon="7.606621">
        <ele>1606.26607</ele>
        <time>2021-10-13T08:05:19.000Z</time>
      </trkpt>
      <trkpt lat="45.458561" lon="7.606609">
        <ele>1605.68177</ele>
        <time>2021-10-13T08:05:24.000Z</time>
      </trkpt>
      <trkpt lat="45.458559" lon="7.606598">
        <ele>1605.05578</ele>
        <time>2021-10-13T08:05:30.000Z</time>
      </trkpt>
      <trkpt lat="45.45853" lon="7.606581">
        <ele>1604.47666</ele>
        <time>2021-10-13T08:05:42.000Z</time>
      </trkpt>
      <trkpt lat="45.458508" lon="7.606616">
        <ele>1606.81814</ele>
        <time>2021-10-13T08:05:48.000Z</time>
      </trkpt>
      <trkpt lat="45.458493" lon="7.606636">
        <ele>1608.17702</ele>
        <time>2021-10-13T08:05:53.000Z</time>
      </trkpt>
      <trkpt lat="45.458465" lon="7.606629">
        <ele>1608.23859</ele>
        <time>2021-10-13T08:05:59.000Z</time>
      </trkpt>
      <trkpt lat="45.458453" lon="7.606655">
        <ele>1609.84933</ele>
        <time>2021-10-13T08:06:05.000Z</time>
      </trkpt>
      <trkpt lat="45.458461" lon="7.606673">
        <ele>1610.71528</ele>
        <time>2021-10-13T08:06:11.000Z</time>
      </trkpt>
      <trkpt lat="45.458487" lon="7.606678">
        <ele>1610.61277</ele>
        <time>2021-10-13T08:06:16.000Z</time>
      </trkpt>
      <trkpt lat="45.458514" lon="7.606707">
        <ele>1611.89377</ele>
        <time>2021-10-13T08:06:26.000Z</time>
      </trkpt>
      <trkpt lat="45.458521" lon="7.606729">
        <ele>1613.07277</ele>
        <time>2021-10-13T08:06:32.000Z</time>
      </trkpt>
      <trkpt lat="45.458533" lon="7.606744">
        <ele>1613.82519</ele>
        <time>2021-10-13T08:06:38.000Z</time>
      </trkpt>
      <trkpt lat="45.458559" lon="7.606756">
        <ele>1614.32699</ele>
        <time>2021-10-13T08:06:44.000Z</time>
      </trkpt>
      <trkpt lat="45.458578" lon="7.606768">
        <ele>1614.94031</ele>
        <time>2021-10-13T08:07:02.000Z</time>
      </trkpt>
      <trkpt lat="45.458605" lon="7.606796">
        <ele>1616.54289</ele>
        <time>2021-10-13T08:07:08.000Z</time>
      </trkpt>
      <trkpt lat="45.458632" lon="7.606799">
        <ele>1616.7456</ele>
        <time>2021-10-13T08:07:14.000Z</time>
      </trkpt>
      <trkpt lat="45.458655" lon="7.606805">
        <ele>1617.20621</ele>
        <time>2021-10-13T08:07:20.000Z</time>
      </trkpt>
      <trkpt lat="45.458662" lon="7.606816">
        <ele>1617.87887</ele>
        <time>2021-10-13T08:07:26.000Z</time>
      </trkpt>
      <trkpt lat="45.458665" lon="7.606844">
        <ele>1619.47085</ele>
        <time>2021-10-13T08:07:32.000Z</time>
      </trkpt>
      <trkpt lat="45.458695" lon="7.60685">
        <ele>1619.96029</ele>
        <time>2021-10-13T08:07:38.000Z</time>
      </trkpt>
      <trkpt lat="45.458701" lon="7.606881">
        <ele>1621.61563</ele>
        <time>2021-10-13T08:07:56.000Z</time>
      </trkpt>
      <trkpt lat="45.458692" lon="7.606913">
        <ele>1623.23963</ele>
        <time>2021-10-13T08:08:02.000Z</time>
      </trkpt>
      <trkpt lat="45.45869" lon="7.606951">
        <ele>1625.15768</ele>
        <time>2021-10-13T08:08:08.000Z</time>
      </trkpt>
      <trkpt lat="45.458724" lon="7.606976">
        <ele>1626.33824</ele>
        <time>2021-10-13T08:08:14.000Z</time>
      </trkpt>
      <trkpt lat="45.458755" lon="7.606975">
        <ele>1626.26067</ele>
        <time>2021-10-13T08:08:20.000Z</time>
      </trkpt>
      <trkpt lat="45.458759" lon="7.606998">
        <ele>1627.31995</ele>
        <time>2021-10-13T08:08:50.000Z</time>
      </trkpt>
      <trkpt lat="45.458736" lon="7.607013">
        <ele>1628.05254</ele>
        <time>2021-10-13T08:08:56.000Z</time>
      </trkpt>
      <trkpt lat="45.458729" lon="7.60702">
        <ele>1628.39122</ele>
        <time>2021-10-13T08:09:02.000Z</time>
      </trkpt>
      <trkpt lat="45.458697" lon="7.607056">
        <ele>1630.13849</ele>
        <time>2021-10-13T08:09:08.000Z</time>
      </trkpt>
      <trkpt lat="45.458717" lon="7.607091">
        <ele>1631.62841</ele>
        <time>2021-10-13T08:09:14.000Z</time>
      </trkpt>
      <trkpt lat="45.458754" lon="7.607102">
        <ele>1631.9641</ele>
        <time>2021-10-13T08:09:20.000Z</time>
      </trkpt>
      <trkpt lat="45.458774" lon="7.607122">
        <ele>1632.72787</ele>
        <time>2021-10-13T08:09:26.000Z</time>
      </trkpt>
      <trkpt lat="45.458781" lon="7.607127">
        <ele>1632.90325</ele>
        <time>2021-10-13T08:09:32.000Z</time>
      </trkpt>
      <trkpt lat="45.458801" lon="7.607144">
        <ele>1633.49376</ele>
        <time>2021-10-13T08:09:38.000Z</time>
      </trkpt>
      <trkpt lat="45.458785" lon="7.607159">
        <ele>1634.194</ele>
        <time>2021-10-13T08:09:50.000Z</time>
      </trkpt>
      <trkpt lat="45.458755" lon="7.607173">
        <ele>1634.92333</ele>
        <time>2021-10-13T08:09:56.000Z</time>
      </trkpt>
      <trkpt lat="45.458742" lon="7.607196">
        <ele>1635.91339</ele>
        <time>2021-10-13T08:10:02.000Z</time>
      </trkpt>
      <trkpt lat="45.458732" lon="7.607225">
        <ele>1637.10434</ele>
        <time>2021-10-13T08:10:08.000Z</time>
      </trkpt>
      <trkpt lat="45.458757" lon="7.607263">
        <ele>1638.36346</ele>
        <time>2021-10-13T08:10:20.000Z</time>
      </trkpt>
      <trkpt lat="45.458772" lon="7.607326">
        <ele>1640.4209</ele>
        <time>2021-10-13T08:10:37.000Z</time>
      </trkpt>
      <trkpt lat="45.45877" lon="7.607375">
        <ele>1642.04822</ele>
        <time>2021-10-13T08:10:43.000Z</time>
      </trkpt>
      <trkpt lat="45.458756" lon="7.607424">
        <ele>1643.77209</ele>
        <time>2021-10-13T08:11:00.000Z</time>
      </trkpt>
      <trkpt lat="45.458733" lon="7.607462">
        <ele>1645.2324</ele>
        <time>2021-10-13T08:11:16.000Z</time>
      </trkpt>
      <trkpt lat="45.458711" lon="7.607491">
        <ele>1646.41507</ele>
        <time>2021-10-13T08:11:28.000Z</time>
      </trkpt>
      <trkpt lat="45.45872" lon="7.607536">
        <ele>1648.05077</ele>
        <time>2021-10-13T08:11:33.000Z</time>
      </trkpt>
      <trkpt lat="45.45872" lon="7.607577">
        <ele>1649.64189</ele>
        <time>2021-10-13T08:11:44.000Z</time>
      </trkpt>
      <trkpt lat="45.458691" lon="7.607579">
        <ele>1649.90649</ele>
        <time>2021-10-13T08:11:50.000Z</time>
      </trkpt>
      <trkpt lat="45.458672" lon="7.607601">
        <ele>1650.86344</ele>
        <time>2021-10-13T08:11:56.000Z</time>
      </trkpt>
      <trkpt lat="45.458674" lon="7.607647">
        <ele>1652.56258</ele>
        <time>2021-10-13T08:12:02.000Z</time>
      </trkpt>
      <trkpt lat="45.458683" lon="7.607663">
        <ele>1653.07973</ele>
        <time>2021-10-13T08:12:08.000Z</time>
      </trkpt>
      <trkpt lat="45.458675" lon="7.607748">
        <ele>1655.72535</ele>
        <time>2021-10-13T08:12:32.000Z</time>
      </trkpt>
      <trkpt lat="45.458667" lon="7.607808">
        <ele>1657.1889</ele>
        <time>2021-10-13T08:12:38.000Z</time>
      </trkpt>
      <trkpt lat="45.458628" lon="7.607857">
        <ele>1658.3573</ele>
        <time>2021-10-13T08:13:08.000Z</time>
      </trkpt>
      <trkpt lat="45.458643" lon="7.6079">
        <ele>1659.11426</ele>
        <time>2021-10-13T08:13:14.000Z</time>
      </trkpt>
      <trkpt lat="45.458655" lon="7.607931">
        <ele>1659.5926</ele>
        <time>2021-10-13T08:13:20.000Z</time>
      </trkpt>
      <trkpt lat="45.458668" lon="7.607971">
        <ele>1660.16328</ele>
        <time>2021-10-13T08:13:50.000Z</time>
      </trkpt>
      <trkpt lat="45.458672" lon="7.608006">
        <ele>1660.72284</ele>
        <time>2021-10-13T08:14:02.000Z</time>
      </trkpt>
      <trkpt lat="45.458649" lon="7.608058">
        <ele>1661.72429</ele>
        <time>2021-10-13T08:14:08.000Z</time>
      </trkpt>
      <trkpt lat="45.458658" lon="7.608091">
        <ele>1662.15038</ele>
        <time>2021-10-13T08:14:20.000Z</time>
      </trkpt>
      <trkpt lat="45.458652" lon="7.608133">
        <ele>1662.75459</ele>
        <time>2021-10-13T08:14:32.000Z</time>
      </trkpt>
      <trkpt lat="45.458631" lon="7.608211">
        <ele>1663.74674</ele>
        <time>2021-10-13T08:14:44.000Z</time>
      </trkpt>
      <trkpt lat="45.458601" lon="7.608316">
        <ele>1664.7769</ele>
        <time>2021-10-13T08:14:56.000Z</time>
      </trkpt>
      <trkpt lat="45.45862" lon="7.608375">
        <ele>1666.14779</ele>
        <time>2021-10-13T08:15:08.000Z</time>
      </trkpt>
      <trkpt lat="45.458649" lon="7.608409">
        <ele>1667.20856</ele>
        <time>2021-10-13T08:15:14.000Z</time>
      </trkpt>
      <trkpt lat="45.458652" lon="7.60845">
        <ele>1668.03051</ele>
        <time>2021-10-13T08:15:20.000Z</time>
      </trkpt>
      <trkpt lat="45.458651" lon="7.608489">
        <ele>1668.81826</ele>
        <time>2021-10-13T08:15:26.000Z</time>
      </trkpt>
      <trkpt lat="45.458656" lon="7.6085">
        <ele>1669.12004</ele>
        <time>2021-10-13T08:15:32.000Z</time>
      </trkpt>
      <trkpt lat="45.458658" lon="7.608549">
        <ele>1670.27725</ele>
        <time>2021-10-13T08:15:38.000Z</time>
      </trkpt>
      <trkpt lat="45.458659" lon="7.608586">
        <ele>1671.20938</ele>
        <time>2021-10-13T08:15:44.000Z</time>
      </trkpt>
      <trkpt lat="45.458654" lon="7.60862">
        <ele>1672.01179</ele>
        <time>2021-10-13T08:15:50.000Z</time>
      </trkpt>
      <trkpt lat="45.458635" lon="7.60865">
        <ele>1672.42675</ele>
        <time>2021-10-13T08:15:56.000Z</time>
      </trkpt>
      <trkpt lat="45.458636" lon="7.608691">
        <ele>1673.51423</ele>
        <time>2021-10-13T08:16:02.000Z</time>
      </trkpt>
      <trkpt lat="45.458636" lon="7.608729">
        <ele>1674.48637</ele>
        <time>2021-10-13T08:16:08.000Z</time>
      </trkpt>
      <trkpt lat="45.458639" lon="7.60876">
        <ele>1675.32619</ele>
        <time>2021-10-13T08:16:14.000Z</time>
      </trkpt>
      <trkpt lat="45.458647" lon="7.608786">
        <ele>1676.152</ele>
        <time>2021-10-13T08:16:20.000Z</time>
      </trkpt>
      <trkpt lat="45.458666" lon="7.608815">
        <ele>1677.18752</ele>
        <time>2021-10-13T08:16:26.000Z</time>
      </trkpt>
      <trkpt lat="45.458674" lon="7.608822">
        <ele>1677.44709</ele>
        <time>2021-10-13T08:16:32.000Z</time>
      </trkpt>
      <trkpt lat="45.458676" lon="7.608825">
        <ele>1677.54092</ele>
        <time>2021-10-13T08:16:38.000Z</time>
      </trkpt>
      <trkpt lat="45.458692" lon="7.608852">
        <ele>1678.31954</ele>
        <time>2021-10-13T08:16:44.000Z</time>
      </trkpt>
      <trkpt lat="45.458695" lon="7.608888">
        <ele>1679.23356</ele>
        <time>2021-10-13T08:16:50.000Z</time>
      </trkpt>
      <trkpt lat="45.458693" lon="7.608907">
        <ele>1679.69535</ele>
        <time>2021-10-13T08:16:56.000Z</time>
      </trkpt>
      <trkpt lat="45.458687" lon="7.608937">
        <ele>1680.3879</ele>
        <time>2021-10-13T08:17:02.000Z</time>
      </trkpt>
      <trkpt lat="45.458678" lon="7.608974">
        <ele>1681.15775</ele>
        <time>2021-10-13T08:17:08.000Z</time>
      </trkpt>
      <trkpt lat="45.458676" lon="7.609004">
        <ele>1681.72989</ele>
        <time>2021-10-13T08:17:14.000Z</time>
      </trkpt>
      <trkpt lat="45.458669" lon="7.609033">
        <ele>1682.16577</ele>
        <time>2021-10-13T08:17:20.000Z</time>
      </trkpt>
      <trkpt lat="45.458664" lon="7.609073">
        <ele>1682.68855</ele>
        <time>2021-10-13T08:17:26.000Z</time>
      </trkpt>
      <trkpt lat="45.458641" lon="7.609134">
        <ele>1682.87734</ele>
        <time>2021-10-13T08:17:32.000Z</time>
      </trkpt>
      <trkpt lat="45.458692" lon="7.60916">
        <ele>1684.16304</ele>
        <time>2021-10-13T08:17:44.000Z</time>
      </trkpt>
      <trkpt lat="45.458708" lon="7.609219">
        <ele>1685.1285</ele>
        <time>2021-10-13T08:17:56.000Z</time>
      </trkpt>
      <trkpt lat="45.458735" lon="7.609277">
        <ele>1686.36243</ele>
        <time>2021-10-13T08:18:02.000Z</time>
      </trkpt>
      <trkpt lat="45.458753" lon="7.609386">
        <ele>1687.96829</ele>
        <time>2021-10-13T08:18:32.000Z</time>
      </trkpt>
      <trkpt lat="45.458764" lon="7.609505">
        <ele>1689.19633</ele>
        <time>2021-10-13T08:18:55.000Z</time>
      </trkpt>
      <trkpt lat="45.458804" lon="7.609648">
        <ele>1690.78064</ele>
        <time>2021-10-13T08:19:17.000Z</time>
      </trkpt>
      <trkpt lat="45.458871" lon="7.60982">
        <ele>1691.45556</ele>
        <time>2021-10-13T08:19:44.000Z</time>
      </trkpt>
      <trkpt lat="45.458988" lon="7.609995">
        <ele>1694.89147</ele>
        <time>2021-10-13T08:20:02.000Z</time>
      </trkpt>
      <trkpt lat="45.459055" lon="7.610191">
        <ele>1694.02557</ele>
        <time>2021-10-13T08:21:02.000Z</time>
      </trkpt>
      <trkpt lat="45.459149" lon="7.610399">
        <ele>1692.8884</ele>
        <time>2021-10-13T08:21:26.000Z</time>
      </trkpt>
      <trkpt lat="45.459197" lon="7.610501">
        <ele>1692.97598</ele>
        <time>2021-10-13T08:21:50.000Z</time>
      </trkpt>
      <trkpt lat="45.459227" lon="7.610575">
        <ele>1692.81521</ele>
        <time>2021-10-13T08:22:14.000Z</time>
      </trkpt>
      <trkpt lat="45.459278" lon="7.610677">
        <ele>1692.26552</ele>
        <time>2021-10-13T08:22:20.000Z</time>
      </trkpt>
      <trkpt lat="45.459291" lon="7.610739">
        <ele>1691.96379</ele>
        <time>2021-10-13T08:22:26.000Z</time>
      </trkpt>
      <trkpt lat="45.459316" lon="7.610794">
        <ele>1691.85883</ele>
        <time>2021-10-13T08:22:32.000Z</time>
      </trkpt>
      <trkpt lat="45.459336" lon="7.610856">
        <ele>1692.00563</ele>
        <time>2021-10-13T08:22:38.000Z</time>
      </trkpt>
      <trkpt lat="45.459374" lon="7.610904">
        <ele>1692.2962</ele>
        <time>2021-10-13T08:22:44.000Z</time>
      </trkpt>
      <trkpt lat="45.45941" lon="7.610959">
        <ele>1692.75005</ele>
        <time>2021-10-13T08:22:50.000Z</time>
      </trkpt>
      <trkpt lat="45.459466" lon="7.611026">
        <ele>1693.13687</ele>
        <time>2021-10-13T08:22:56.000Z</time>
      </trkpt>
      <trkpt lat="45.459497" lon="7.611081">
        <ele>1693.63373</ele>
        <time>2021-10-13T08:23:02.000Z</time>
      </trkpt>
      <trkpt lat="45.459531" lon="7.611128">
        <ele>1694.11977</ele>
        <time>2021-10-13T08:23:08.000Z</time>
      </trkpt>
      <trkpt lat="45.459568" lon="7.611173">
        <ele>1694.72403</ele>
        <time>2021-10-13T08:23:14.000Z</time>
      </trkpt>
      <trkpt lat="45.459606" lon="7.611207">
        <ele>1695.19348</ele>
        <time>2021-10-13T08:23:20.000Z</time>
      </trkpt>
      <trkpt lat="45.459645" lon="7.611245">
        <ele>1695.72906</ele>
        <time>2021-10-13T08:23:26.000Z</time>
      </trkpt>
      <trkpt lat="45.459699" lon="7.611273">
        <ele>1695.79682</ele>
        <time>2021-10-13T08:23:32.000Z</time>
      </trkpt>
      <trkpt lat="45.459743" lon="7.611327">
        <ele>1696.44306</ele>
        <time>2021-10-13T08:23:38.000Z</time>
      </trkpt>
      <trkpt lat="45.459776" lon="7.611351">
        <ele>1696.47539</ele>
        <time>2021-10-13T08:23:44.000Z</time>
      </trkpt>
      <trkpt lat="45.459808" lon="7.611386">
        <ele>1696.71489</ele>
        <time>2021-10-13T08:23:50.000Z</time>
      </trkpt>
      <trkpt lat="45.459848" lon="7.611424">
        <ele>1696.78608</ele>
        <time>2021-10-13T08:23:56.000Z</time>
      </trkpt>
      <trkpt lat="45.459885" lon="7.611477">
        <ele>1697.14092</ele>
        <time>2021-10-13T08:24:02.000Z</time>
      </trkpt>
      <trkpt lat="45.459927" lon="7.611526">
        <ele>1697.0862</ele>
        <time>2021-10-13T08:24:08.000Z</time>
      </trkpt>
      <trkpt lat="45.459956" lon="7.611583">
        <ele>1697.35849</ele>
        <time>2021-10-13T08:24:14.000Z</time>
      </trkpt>
      <trkpt lat="45.459989" lon="7.611641">
        <ele>1697.36812</ele>
        <time>2021-10-13T08:24:20.000Z</time>
      </trkpt>
      <trkpt lat="45.460017" lon="7.611709">
        <ele>1697.64359</ele>
        <time>2021-10-13T08:24:26.000Z</time>
      </trkpt>
      <trkpt lat="45.460035" lon="7.611772">
        <ele>1698.11154</ele>
        <time>2021-10-13T08:24:32.000Z</time>
      </trkpt>
      <trkpt lat="45.460066" lon="7.611818">
        <ele>1697.72754</ele>
        <time>2021-10-13T08:24:38.000Z</time>
      </trkpt>
      <trkpt lat="45.460062" lon="7.611834">
        <ele>1698.17364</ele>
        <time>2021-10-13T08:24:44.000Z</time>
      </trkpt>
      <trkpt lat="45.46006" lon="7.611832">
        <ele>1698.21385</ele>
        <time>2021-10-13T08:24:50.000Z</time>
      </trkpt>
      <trkpt lat="45.460072" lon="7.611867">
        <ele>1698.39585</ele>
        <time>2021-10-13T08:24:56.000Z</time>
      </trkpt>
      <trkpt lat="45.46009" lon="7.611946">
        <ele>1699.05961</ele>
        <time>2021-10-13T08:25:02.000Z</time>
      </trkpt>
      <trkpt lat="45.460111" lon="7.612016">
        <ele>1699.11038</ele>
        <time>2021-10-13T08:25:08.000Z</time>
      </trkpt>
      <trkpt lat="45.460114" lon="7.612072">
        <ele>1699.29492</ele>
        <time>2021-10-13T08:25:14.000Z</time>
      </trkpt>
      <trkpt lat="45.460094" lon="7.612143">
        <ele>1699.92089</ele>
        <time>2021-10-13T08:25:20.000Z</time>
      </trkpt>
      <trkpt lat="45.460073" lon="7.612213">
        <ele>1700.21663</ele>
        <time>2021-10-13T08:25:26.000Z</time>
      </trkpt>
      <trkpt lat="45.460042" lon="7.612274">
        <ele>1700.82697</ele>
        <time>2021-10-13T08:25:32.000Z</time>
      </trkpt>
      <trkpt lat="45.460021" lon="7.612354">
        <ele>1700.74153</ele>
        <time>2021-10-13T08:25:38.000Z</time>
      </trkpt>
      <trkpt lat="45.459999" lon="7.612417">
        <ele>1700.46748</ele>
        <time>2021-10-13T08:25:44.000Z</time>
      </trkpt>
      <trkpt lat="45.460001" lon="7.612429">
        <ele>1700.21109</ele>
        <time>2021-10-13T08:25:50.000Z</time>
      </trkpt>
      <trkpt lat="45.459966" lon="7.612465">
        <ele>1700.56171</ele>
        <time>2021-10-13T08:25:56.000Z</time>
      </trkpt>
      <trkpt lat="45.459934" lon="7.612539">
        <ele>1700.31057</ele>
        <time>2021-10-13T08:26:02.000Z</time>
      </trkpt>
      <trkpt lat="45.459873" lon="7.612606">
        <ele>1701.18152</ele>
        <time>2021-10-13T08:26:08.000Z</time>
      </trkpt>
      <trkpt lat="45.459878" lon="7.612708">
        <ele>1701.4268</ele>
        <time>2021-10-13T08:26:14.000Z</time>
      </trkpt>
      <trkpt lat="45.459934" lon="7.612761">
        <ele>1700.6828</ele>
        <time>2021-10-13T08:26:20.000Z</time>
      </trkpt>
      <trkpt lat="45.459957" lon="7.612801">
        <ele>1700.64625</ele>
        <time>2021-10-13T08:26:26.000Z</time>
      </trkpt>
      <trkpt lat="45.459962" lon="7.612849">
        <ele>1701.29344</ele>
        <time>2021-10-13T08:26:32.000Z</time>
      </trkpt>
      <trkpt lat="45.459983" lon="7.612889">
        <ele>1701.56668</ele>
        <time>2021-10-13T08:26:38.000Z</time>
      </trkpt>
      <trkpt lat="45.46001" lon="7.612945">
        <ele>1702.17414</ele>
        <time>2021-10-13T08:26:44.000Z</time>
      </trkpt>
      <trkpt lat="45.460047" lon="7.612955">
        <ele>1701.30619</ele>
        <time>2021-10-13T08:26:50.000Z</time>
      </trkpt>
      <trkpt lat="45.460081" lon="7.612983">
        <ele>1700.92413</ele>
        <time>2021-10-13T08:26:56.000Z</time>
      </trkpt>
      <trkpt lat="45.460104" lon="7.613033">
        <ele>1701.40714</ele>
        <time>2021-10-13T08:27:02.000Z</time>
      </trkpt>
      <trkpt lat="45.460126" lon="7.613045">
        <ele>1700.92481</ele>
        <time>2021-10-13T08:27:08.000Z</time>
      </trkpt>
      <trkpt lat="45.460138" lon="7.613079">
        <ele>1701.26271</ele>
        <time>2021-10-13T08:27:14.000Z</time>
      </trkpt>
      <trkpt lat="45.460145" lon="7.613106">
        <ele>1701.61153</ele>
        <time>2021-10-13T08:27:20.000Z</time>
      </trkpt>
      <trkpt lat="45.460174" lon="7.61315">
        <ele>1701.50076</ele>
        <time>2021-10-13T08:27:26.000Z</time>
      </trkpt>
      <trkpt lat="45.460187" lon="7.613207">
        <ele>1702.29149</ele>
        <time>2021-10-13T08:27:32.000Z</time>
      </trkpt>
      <trkpt lat="45.460212" lon="7.613245">
        <ele>1702.24042</ele>
        <time>2021-10-13T08:27:44.000Z</time>
      </trkpt>
      <trkpt lat="45.460226" lon="7.613272">
        <ele>1702.36578</ele>
        <time>2021-10-13T08:27:56.000Z</time>
      </trkpt>
      <trkpt lat="45.46027" lon="7.613328">
        <ele>1702.1995</ele>
        <time>2021-10-13T08:28:02.000Z</time>
      </trkpt>
      <trkpt lat="45.460294" lon="7.613389">
        <ele>1702.64585</ele>
        <time>2021-10-13T08:28:08.000Z</time>
      </trkpt>
      <trkpt lat="45.460325" lon="7.613443">
        <ele>1702.66265</ele>
        <time>2021-10-13T08:28:14.000Z</time>
      </trkpt>
      <trkpt lat="45.460343" lon="7.613508">
        <ele>1703.15203</ele>
        <time>2021-10-13T08:28:20.000Z</time>
      </trkpt>
      <trkpt lat="45.460359" lon="7.613565">
        <ele>1703.52675</ele>
        <time>2021-10-13T08:28:26.000Z</time>
      </trkpt>
      <trkpt lat="45.460368" lon="7.613598">
        <ele>1703.74739</ele>
        <time>2021-10-13T08:29:44.000Z</time>
      </trkpt>
      <trkpt lat="45.460383" lon="7.613674">
        <ele>1704.39517</ele>
        <time>2021-10-13T08:29:56.000Z</time>
      </trkpt>
      <trkpt lat="45.46041" lon="7.613731">
        <ele>1704.44519</ele>
        <time>2021-10-13T08:30:02.000Z</time>
      </trkpt>
      <trkpt lat="45.460438" lon="7.613786">
        <ele>1704.39424</ele>
        <time>2021-10-13T08:30:08.000Z</time>
      </trkpt>
      <trkpt lat="45.460446" lon="7.613854">
        <ele>1704.80037</ele>
        <time>2021-10-13T08:30:14.000Z</time>
      </trkpt>
      <trkpt lat="45.460461" lon="7.613908">
        <ele>1704.95325</ele>
        <time>2021-10-13T08:30:20.000Z</time>
      </trkpt>
      <trkpt lat="45.460468" lon="7.614001">
        <ele>1705.40268</ele>
        <time>2021-10-13T08:31:02.000Z</time>
      </trkpt>
      <trkpt lat="45.460485" lon="7.614076">
        <ele>1705.51266</ele>
        <time>2021-10-13T08:31:08.000Z</time>
      </trkpt>
      <trkpt lat="45.460494" lon="7.614152">
        <ele>1705.47189</ele>
        <time>2021-10-13T08:31:14.000Z</time>
      </trkpt>
      <trkpt lat="45.460523" lon="7.614182">
        <ele>1705.61277</ele>
        <time>2021-10-13T08:31:20.000Z</time>
      </trkpt>
      <trkpt lat="45.460565" lon="7.614241">
        <ele>1705.96638</ele>
        <time>2021-10-13T08:31:50.000Z</time>
      </trkpt>
      <trkpt lat="45.460602" lon="7.614287">
        <ele>1706.39325</ele>
        <time>2021-10-13T08:31:56.000Z</time>
      </trkpt>
      <trkpt lat="45.460643" lon="7.614331">
        <ele>1706.96674</ele>
        <time>2021-10-13T08:32:02.000Z</time>
      </trkpt>
      <trkpt lat="45.460681" lon="7.614398">
        <ele>1707.59085</ele>
        <time>2021-10-13T08:32:08.000Z</time>
      </trkpt>
      <trkpt lat="45.460738" lon="7.614494">
        <ele>1708.84525</ele>
        <time>2021-10-13T08:32:14.000Z</time>
      </trkpt>
      <trkpt lat="45.460783" lon="7.61458">
        <ele>1710.23412</ele>
        <time>2021-10-13T08:32:20.000Z</time>
      </trkpt>
      <trkpt lat="45.460825" lon="7.61468">
        <ele>1711.73556</ele>
        <time>2021-10-13T08:32:26.000Z</time>
      </trkpt>
    </trkseg>
  </trk>
</gpx>